<?xml version='1.0' encoding='UTF-8'?><gpx version="1.1" creator="JPX - https://github.com/jenetics/jpx" xmlns="http://www.topografix.com/GPX/1/1"><trk><trkseg><trkpt lat="45.652907" lon="10.1445919"><ele>607.0</ele><time>2026-05-04T18:13:36.893Z</time></trkpt><trkpt lat="45.6529947" lon="10.1445525"><ele>607.0</ele><time>2026-05-04T18:13:39.892Z</time></trkpt><trkpt lat="45.653053" lon="10.1445089"><ele>607.0</ele><time>2026-05-04T18:13:41.892Z</time></trkpt><trkpt lat="45.6530839" lon="10.1444128"><ele>607.0</ele><time>2026-05-04T18:13:43.892Z</time></trkpt><trkpt lat="45.653107" lon="10.1443162"><ele>607.0</ele><time>2026-05-04T18:13:46.892Z</time></trkpt><trkpt lat="45.6531362" lon="10.1442186"><ele>607.0</ele><time>2026-05-04T18:13:53.892Z</time></trkpt><trkpt lat="45.6531603" lon="10.1441189"><ele>606.3333333333334</ele><time>2026-05-04T18:13:58.892Z</time></trkpt><trkpt lat="45.6532003" lon="10.1440362"><ele>605.6666666666667</ele><time>2026-05-04T18:14:00.892Z</time></trkpt><trkpt lat="45.6532231" lon="10.1439098"><ele>605.0</ele><time>2026-05-04T18:14:02.892Z</time></trkpt><trkpt lat="45.6532773" lon="10.1437846"><ele>604.3333333333334</ele><time>2026-05-04T18:14:04.892Z</time></trkpt><trkpt lat="45.6532903" lon="10.1436939"><ele>603.6666666666666</ele><time>2026-05-04T18:14:05.892Z</time></trkpt><trkpt lat="45.6533266" lon="10.1435316"><ele>603.0</ele><time>2026-05-04T18:14:07.892Z</time></trkpt><trkpt lat="45.6533376" lon="10.1434398"><ele>603.0</ele><time>2026-05-04T18:14:08.892Z</time></trkpt><trkpt lat="45.6533564" lon="10.1433428"><ele>603.0</ele><time>2026-05-04T18:14:09.892Z</time></trkpt><trkpt lat="45.6533762" lon="10.1432539"><ele>603.0</ele><time>2026-05-04T18:14:10.892Z</time></trkpt><trkpt lat="45.6534032" lon="10.143162"><ele>603.0</ele><time>2026-05-04T18:14:11.892Z</time></trkpt><trkpt lat="45.6534324" lon="10.14306"><ele>603.0</ele><time>2026-05-04T18:14:12.892Z</time></trkpt><trkpt lat="45.653455" lon="10.1429295"><ele>603.0</ele><time>2026-05-04T18:14:13.893Z</time></trkpt><trkpt lat="45.6534826" lon="10.142772"><ele>602.4</ele><time>2026-05-04T18:14:14.892Z</time></trkpt><trkpt lat="45.6535165" lon="10.142648"><ele>601.8</ele><time>2026-05-04T18:14:15.892Z</time></trkpt><trkpt lat="45.6535385" lon="10.1424998"><ele>601.2</ele><time>2026-05-04T18:14:16.892Z</time></trkpt><trkpt lat="45.653557" lon="10.1423593"><ele>600.6</ele><time>2026-05-04T18:14:17.892Z</time></trkpt><trkpt lat="45.6535824" lon="10.1422073"><ele>600.0</ele><time>2026-05-04T18:14:18.892Z</time></trkpt><trkpt lat="45.653615" lon="10.1420682"><ele>600.6</ele><time>2026-05-04T18:14:19.892Z</time></trkpt><trkpt lat="45.6536574" lon="10.1419427"><ele>601.2</ele><time>2026-05-04T18:14:20.892Z</time></trkpt><trkpt lat="45.6537182" lon="10.1418117"><ele>601.8</ele><time>2026-05-04T18:14:21.892Z</time></trkpt><trkpt lat="45.653788" lon="10.1417122"><ele>602.4</ele><time>2026-05-04T18:14:22.892Z</time></trkpt><trkpt lat="45.6538684" lon="10.1416176"><ele>603.0</ele><time>2026-05-04T18:14:23.892Z</time></trkpt><trkpt lat="45.6539133" lon="10.1414972"><ele>603.0</ele><time>2026-05-04T18:14:24.892Z</time></trkpt><trkpt lat="45.6539581" lon="10.1413527"><ele>603.0</ele><time>2026-05-04T18:14:25.892Z</time></trkpt><trkpt lat="45.6539874" lon="10.1412097"><ele>603.0</ele><time>2026-05-04T18:14:26.892Z</time></trkpt><trkpt lat="45.6540049" lon="10.1410369"><ele>603.0</ele><time>2026-05-04T18:14:27.892Z</time></trkpt><trkpt lat="45.6540253" lon="10.1408759"><ele>601.25</ele><time>2026-05-04T18:14:28.892Z</time></trkpt><trkpt lat="45.6540508" lon="10.1407059"><ele>599.5</ele><time>2026-05-04T18:14:29.892Z</time></trkpt><trkpt lat="45.6540817" lon="10.1405501"><ele>597.75</ele><time>2026-05-04T18:14:30.892Z</time></trkpt><trkpt lat="45.6541198" lon="10.140355"><ele>596.0</ele><time>2026-05-04T18:14:31.892Z</time></trkpt><trkpt lat="45.6541206" lon="10.1401438"><ele>596.0</ele><time>2026-05-04T18:14:32.892Z</time></trkpt><trkpt lat="45.6541104" lon="10.1398939"><ele>596.0</ele><time>2026-05-04T18:14:33.893Z</time></trkpt><trkpt lat="45.6541109" lon="10.1397062"><ele>596.0</ele><time>2026-05-04T18:14:34.892Z</time></trkpt><trkpt lat="45.6540657" lon="10.1395573"><ele>596.0</ele><time>2026-05-04T18:14:35.892Z</time></trkpt><trkpt lat="45.6540811" lon="10.1393969"><ele>594.6</ele><time>2026-05-04T18:14:36.892Z</time></trkpt><trkpt lat="45.6540769" lon="10.1392731"><ele>593.2</ele><time>2026-05-04T18:14:37.892Z</time></trkpt><trkpt lat="45.6540516" lon="10.1391502"><ele>591.8</ele><time>2026-05-04T18:14:38.892Z</time></trkpt><trkpt lat="45.6540362" lon="10.139021"><ele>590.4</ele><time>2026-05-04T18:14:39.892Z</time></trkpt><trkpt lat="45.6539777" lon="10.1388745"><ele>589.0</ele><time>2026-05-04T18:14:41.892Z</time></trkpt><trkpt lat="45.654167" lon="10.1389949"><ele>589.0</ele><time>2026-05-04T18:14:42.892Z</time></trkpt><trkpt lat="45.6542429" lon="10.1391169"><ele>589.0</ele><time>2026-05-04T18:14:43.892Z</time></trkpt><trkpt lat="45.6542713" lon="10.1392195"><ele>589.0</ele><time>2026-05-04T18:14:44.892Z</time></trkpt><trkpt lat="45.6543322" lon="10.1393292"><ele>589.0</ele><time>2026-05-04T18:14:45.892Z</time></trkpt><trkpt lat="45.6543929" lon="10.1394152"><ele>589.0</ele><time>2026-05-04T18:14:46.892Z</time></trkpt><trkpt lat="45.6544566" lon="10.1394707"><ele>589.0</ele><time>2026-05-04T18:14:47.892Z</time></trkpt><trkpt lat="45.6545539" lon="10.1395252"><ele>590.6</ele><time>2026-05-04T18:14:48.892Z</time></trkpt><trkpt lat="45.6546283" lon="10.1395655"><ele>592.2</ele><time>2026-05-04T18:14:49.892Z</time></trkpt><trkpt lat="45.6547016" lon="10.1395576"><ele>593.8000000000001</ele><time>2026-05-04T18:14:50.892Z</time></trkpt><trkpt lat="45.6547869" lon="10.1395845"><ele>595.4</ele><time>2026-05-04T18:14:51.893Z</time></trkpt><trkpt lat="45.6548563" lon="10.1395385"><ele>597.0</ele><time>2026-05-04T18:14:52.892Z</time></trkpt><trkpt lat="45.6548891" lon="10.1392774"><ele>597.0</ele><time>2026-05-04T18:14:53.892Z</time></trkpt><trkpt lat="45.6549528" lon="10.1392109"><ele>597.0</ele><time>2026-05-04T18:14:54.892Z</time></trkpt><trkpt lat="45.6550561" lon="10.1390424"><ele>597.0</ele><time>2026-05-04T18:14:55.892Z</time></trkpt><trkpt lat="45.655147" lon="10.138931"><ele>597.0</ele><time>2026-05-04T18:14:56.892Z</time></trkpt><trkpt lat="45.6551896" lon="10.1383211"><ele>591.6666666666666</ele><time>2026-05-04T18:14:57.892Z</time></trkpt><trkpt lat="45.6552655" lon="10.1381013"><ele>586.3333333333333</ele><time>2026-05-04T18:14:58.892Z</time></trkpt><trkpt lat="45.6553568" lon="10.1378749"><ele>581.0</ele><time>2026-05-04T18:14:59.892Z</time></trkpt><trkpt lat="45.6554335" lon="10.1376822"><ele>581.0</ele><time>2026-05-04T18:15:00.892Z</time></trkpt><trkpt lat="45.6555141" lon="10.1374743"><ele>581.0</ele><time>2026-05-04T18:15:01.892Z</time></trkpt><trkpt lat="45.6555803" lon="10.1372792"><ele>581.0</ele><time>2026-05-04T18:15:02.892Z</time></trkpt><trkpt lat="45.655646" lon="10.1370112"><ele>576.75</ele><time>2026-05-04T18:15:03.892Z</time></trkpt><trkpt lat="45.6557" lon="10.1368372"><ele>572.5</ele><time>2026-05-04T18:15:04.892Z</time></trkpt><trkpt lat="45.6557703" lon="10.1366758"><ele>568.25</ele><time>2026-05-04T18:15:05.892Z</time></trkpt><trkpt lat="45.6558548" lon="10.1365165"><ele>564.0</ele><time>2026-05-04T18:15:06.892Z</time></trkpt><trkpt lat="45.6559355" lon="10.1363585"><ele>563.25</ele><time>2026-05-04T18:15:07.892Z</time></trkpt><trkpt lat="45.6560142" lon="10.1361815"><ele>562.5</ele><time>2026-05-04T18:15:08.892Z</time></trkpt><trkpt lat="45.6561075" lon="10.1360347"><ele>561.75</ele><time>2026-05-04T18:15:09.892Z</time></trkpt><trkpt lat="45.6561852" lon="10.135888"><ele>561.0</ele><time>2026-05-04T18:15:10.892Z</time></trkpt><trkpt lat="45.6562565" lon="10.1357284"><ele>558.5</ele><time>2026-05-04T18:15:11.892Z</time></trkpt><trkpt lat="45.6563322" lon="10.1355972"><ele>556.0</ele><time>2026-05-04T18:15:12.892Z</time></trkpt><trkpt lat="45.6564072" lon="10.1354573"><ele>553.5</ele><time>2026-05-04T18:15:13.892Z</time></trkpt><trkpt lat="45.6564822" lon="10.1353245"><ele>551.0</ele><time>2026-05-04T18:15:14.892Z</time></trkpt><trkpt lat="45.656512" lon="10.1351375"><ele>551.0</ele><time>2026-05-04T18:15:15.892Z</time></trkpt><trkpt lat="45.656574" lon="10.1349882"><ele>551.0</ele><time>2026-05-04T18:15:16.892Z</time></trkpt><trkpt lat="45.656641" lon="10.1349254"><ele>551.0</ele><time>2026-05-04T18:15:17.892Z</time></trkpt><trkpt lat="45.6567222" lon="10.1348313"><ele>551.0</ele><time>2026-05-04T18:15:18.892Z</time></trkpt><trkpt lat="45.6567936" lon="10.1347405"><ele>551.0</ele><time>2026-05-04T18:15:19.892Z</time></trkpt><trkpt lat="45.6568905" lon="10.1346666"><ele>551.5</ele><time>2026-05-04T18:15:20.892Z</time></trkpt><trkpt lat="45.6569906" lon="10.1345883"><ele>552.0</ele><time>2026-05-04T18:15:21.892Z</time></trkpt><trkpt lat="45.6571095" lon="10.134858"><ele>552.5</ele><time>2026-05-04T18:15:22.892Z</time></trkpt><trkpt lat="45.6572082" lon="10.1348014"><ele>553.0</ele><time>2026-05-04T18:15:23.892Z</time></trkpt><trkpt lat="45.6572947" lon="10.1346669"><ele>553.0</ele><time>2026-05-04T18:15:24.892Z</time></trkpt><trkpt lat="45.65735" lon="10.1345307"><ele>553.0</ele><time>2026-05-04T18:15:25.892Z</time></trkpt><trkpt lat="45.6573906" lon="10.1343916"><ele>553.0</ele><time>2026-05-04T18:15:26.892Z</time></trkpt><trkpt lat="45.6574305" lon="10.1341658"><ele>553.0</ele><time>2026-05-04T18:15:27.892Z</time></trkpt><trkpt lat="45.6574805" lon="10.1339565"><ele>549.6666666666667</ele><time>2026-05-04T18:15:28.892Z</time></trkpt><trkpt lat="45.6575142" lon="10.1337357"><ele>546.3333333333334</ele><time>2026-05-04T18:15:29.892Z</time></trkpt><trkpt lat="45.6575584" lon="10.1335242"><ele>543.0</ele><time>2026-05-04T18:15:30.892Z</time></trkpt><trkpt lat="45.6576037" lon="10.1332793"><ele>540.3333333333334</ele><time>2026-05-04T18:15:31.893Z</time></trkpt><trkpt lat="45.657619" lon="10.1330092"><ele>537.6666666666667</ele><time>2026-05-04T18:15:32.892Z</time></trkpt><trkpt lat="45.6576519" lon="10.1327904"><ele>535.0</ele><time>2026-05-04T18:15:33.892Z</time></trkpt><trkpt lat="45.6576842" lon="10.1325924"><ele>534.0</ele><time>2026-05-04T18:15:34.893Z</time></trkpt><trkpt lat="45.6577312" lon="10.1323795"><ele>533.0</ele><time>2026-05-04T18:15:35.892Z</time></trkpt><trkpt lat="45.6577733" lon="10.1321887"><ele>532.0</ele><time>2026-05-04T18:15:36.892Z</time></trkpt><trkpt lat="45.6578271" lon="10.1319875"><ele>531.0</ele><time>2026-05-04T18:15:37.892Z</time></trkpt><trkpt lat="45.6578857" lon="10.1317797"><ele>535.3333333333334</ele><time>2026-05-04T18:15:38.892Z</time></trkpt><trkpt lat="45.6579332" lon="10.1315674"><ele>539.6666666666667</ele><time>2026-05-04T18:15:39.893Z</time></trkpt><trkpt lat="45.6579527" lon="10.1313297"><ele>544.0</ele><time>2026-05-04T18:15:40.892Z</time></trkpt><trkpt lat="45.6579647" lon="10.1311085"><ele>544.0</ele><time>2026-05-04T18:15:41.892Z</time></trkpt><trkpt lat="45.6579666" lon="10.1308872"><ele>544.0</ele><time>2026-05-04T18:15:42.893Z</time></trkpt><trkpt lat="45.6579744" lon="10.1306649"><ele>544.0</ele><time>2026-05-04T18:15:43.892Z</time></trkpt><trkpt lat="45.6579847" lon="10.1305119"><ele>544.0</ele><time>2026-05-04T18:15:44.892Z</time></trkpt><trkpt lat="45.6579855" lon="10.1303097"><ele>541.75</ele><time>2026-05-04T18:15:45.892Z</time></trkpt><trkpt lat="45.6579978" lon="10.1301034"><ele>539.5</ele><time>2026-05-04T18:15:46.892Z</time></trkpt><trkpt lat="45.6580161" lon="10.129908"><ele>537.25</ele><time>2026-05-04T18:15:47.892Z</time></trkpt><trkpt lat="45.6580502" lon="10.1297538"><ele>535.0</ele><time>2026-05-04T18:15:48.892Z</time></trkpt><trkpt lat="45.6580845" lon="10.1296316"><ele>533.5</ele><time>2026-05-04T18:15:49.892Z</time></trkpt><trkpt lat="45.6581016" lon="10.1295213"><ele>532.0</ele><time>2026-05-04T18:15:50.892Z</time></trkpt><trkpt lat="45.6580868" lon="10.1294317"><ele>530.5</ele><time>2026-05-04T18:15:51.892Z</time></trkpt><trkpt lat="45.6580674" lon="10.129339"><ele>529.0</ele><time>2026-05-04T18:15:52.892Z</time></trkpt><trkpt lat="45.6579901" lon="10.1293474"><ele>527.5</ele><time>2026-05-04T18:15:53.892Z</time></trkpt><trkpt lat="45.6579156" lon="10.1293458"><ele>526.0</ele><time>2026-05-04T18:15:54.892Z</time></trkpt><trkpt lat="45.6577916" lon="10.1295625"><ele>524.25</ele><time>2026-05-04T18:15:56.892Z</time></trkpt><trkpt lat="45.6577265" lon="10.1296173"><ele>522.5</ele><time>2026-05-04T18:15:57.892Z</time></trkpt><trkpt lat="45.6576111" lon="10.1297256"><ele>520.75</ele><time>2026-05-04T18:15:58.892Z</time></trkpt><trkpt lat="45.6575147" lon="10.1298353"><ele>519.0</ele><time>2026-05-04T18:15:59.892Z</time></trkpt><trkpt lat="45.6574228" lon="10.1299366"><ele>519.0</ele><time>2026-05-04T18:16:00.892Z</time></trkpt><trkpt lat="45.6573529" lon="10.1300224"><ele>519.0</ele><time>2026-05-04T18:16:01.892Z</time></trkpt><trkpt lat="45.6572924" lon="10.1300793"><ele>519.0</ele><time>2026-05-04T18:16:02.892Z</time></trkpt><trkpt lat="45.6572278" lon="10.1301165"><ele>519.0</ele><time>2026-05-04T18:16:03.892Z</time></trkpt><trkpt lat="45.6571171" lon="10.1301167"><ele>519.0</ele><time>2026-05-04T18:16:05.893Z</time></trkpt><trkpt lat="45.6570807" lon="10.1300076"><ele>519.0</ele><time>2026-05-04T18:16:06.892Z</time></trkpt><trkpt lat="45.657209" lon="10.1298325"><ele>517.25</ele><time>2026-05-04T18:16:07.892Z</time></trkpt><trkpt lat="45.6572404" lon="10.1296843"><ele>515.5</ele><time>2026-05-04T18:16:08.892Z</time></trkpt><trkpt lat="45.6572779" lon="10.1295042"><ele>513.75</ele><time>2026-05-04T18:16:09.892Z</time></trkpt><trkpt lat="45.657325" lon="10.1293486"><ele>512.0</ele><time>2026-05-04T18:16:10.892Z</time></trkpt><trkpt lat="45.6573894" lon="10.1291808"><ele>510.5</ele><time>2026-05-04T18:16:11.892Z</time></trkpt><trkpt lat="45.6574526" lon="10.1289983"><ele>509.0</ele><time>2026-05-04T18:16:12.892Z</time></trkpt><trkpt lat="45.6575045" lon="10.1288161"><ele>507.5</ele><time>2026-05-04T18:16:13.892Z</time></trkpt><trkpt lat="45.6575555" lon="10.1286423"><ele>506.0</ele><time>2026-05-04T18:16:14.892Z</time></trkpt><trkpt lat="45.6576066" lon="10.1284654"><ele>506.0</ele><time>2026-05-04T18:16:15.892Z</time></trkpt><trkpt lat="45.657656" lon="10.128321"><ele>506.0</ele><time>2026-05-04T18:16:16.892Z</time></trkpt><trkpt lat="45.6576972" lon="10.1282219"><ele>506.0</ele><time>2026-05-04T18:16:17.892Z</time></trkpt><trkpt lat="45.6577374" lon="10.128106"><ele>506.0</ele><time>2026-05-04T18:16:18.892Z</time></trkpt><trkpt lat="45.6577939" lon="10.1280313"><ele>506.0</ele><time>2026-05-04T18:16:19.892Z</time></trkpt><trkpt lat="45.6578853" lon="10.1280095"><ele>506.6</ele><time>2026-05-04T18:16:20.892Z</time></trkpt><trkpt lat="45.6579788" lon="10.1280257"><ele>507.20000000000005</ele><time>2026-05-04T18:16:21.892Z</time></trkpt><trkpt lat="45.6580715" lon="10.1280247"><ele>507.79999999999995</ele><time>2026-05-04T18:16:22.892Z</time></trkpt><trkpt lat="45.6581886" lon="10.1280416"><ele>508.4</ele><time>2026-05-04T18:16:23.892Z</time></trkpt><trkpt lat="45.6583015" lon="10.1280682"><ele>509.0</ele><time>2026-05-04T18:16:24.892Z</time></trkpt><trkpt lat="45.6584145" lon="10.1280611"><ele>509.0</ele><time>2026-05-04T18:16:25.892Z</time></trkpt><trkpt lat="45.6585272" lon="10.1280742"><ele>509.0</ele><time>2026-05-04T18:16:26.892Z</time></trkpt><trkpt lat="45.6587105" lon="10.128037"><ele>509.0</ele><time>2026-05-04T18:16:27.892Z</time></trkpt><trkpt lat="45.6588629" lon="10.1280711"><ele>510.3333333333333</ele><time>2026-05-04T18:16:28.892Z</time></trkpt><trkpt lat="45.6590118" lon="10.128054"><ele>511.66666666666663</ele><time>2026-05-04T18:16:29.892Z</time></trkpt><trkpt lat="45.6591529" lon="10.1280312"><ele>513.0</ele><time>2026-05-04T18:16:30.892Z</time></trkpt><trkpt lat="45.6593163" lon="10.1279898"><ele>515.75</ele><time>2026-05-04T18:16:31.892Z</time></trkpt><trkpt lat="45.6594568" lon="10.1279378"><ele>518.5</ele><time>2026-05-04T18:16:32.892Z</time></trkpt><trkpt lat="45.6595858" lon="10.127891"><ele>521.25</ele><time>2026-05-04T18:16:33.892Z</time></trkpt><trkpt lat="45.6597049" lon="10.1278228"><ele>524.0</ele><time>2026-05-04T18:16:34.892Z</time></trkpt><trkpt lat="45.6598469" lon="10.1277565"><ele>524.0</ele><time>2026-05-04T18:16:35.892Z</time></trkpt><trkpt lat="45.6599866" lon="10.1276904"><ele>524.0</ele><time>2026-05-04T18:16:36.892Z</time></trkpt><trkpt lat="45.6601086" lon="10.127625"><ele>524.0</ele><time>2026-05-04T18:16:37.892Z</time></trkpt><trkpt lat="45.6602358" lon="10.1275589"><ele>524.0</ele><time>2026-05-04T18:16:38.892Z</time></trkpt><trkpt lat="45.6603517" lon="10.1275363"><ele>524.25</ele><time>2026-05-04T18:16:39.892Z</time></trkpt><trkpt lat="45.6604857" lon="10.1275056"><ele>524.5</ele><time>2026-05-04T18:16:40.892Z</time></trkpt><trkpt lat="45.6606211" lon="10.1275033"><ele>524.75</ele><time>2026-05-04T18:16:41.892Z</time></trkpt><trkpt lat="45.660752" lon="10.1275263"><ele>525.0</ele><time>2026-05-04T18:16:42.892Z</time></trkpt><trkpt lat="45.66086" lon="10.1275944"><ele>525.0</ele><time>2026-05-04T18:16:43.892Z</time></trkpt><trkpt lat="45.6609524" lon="10.1276894"><ele>525.0</ele><time>2026-05-04T18:16:44.892Z</time></trkpt><trkpt lat="45.6610234" lon="10.1278269"><ele>525.0</ele><time>2026-05-04T18:16:45.892Z</time></trkpt><trkpt lat="45.6610832" lon="10.1279671"><ele>525.0</ele><time>2026-05-04T18:16:46.893Z</time></trkpt><trkpt lat="45.6611534" lon="10.128106"><ele>527.0</ele><time>2026-05-04T18:16:47.892Z</time></trkpt><trkpt lat="45.6612236" lon="10.1282423"><ele>529.0</ele><time>2026-05-04T18:16:48.892Z</time></trkpt><trkpt lat="45.6612982" lon="10.1283831"><ele>531.0</ele><time>2026-05-04T18:16:49.892Z</time></trkpt><trkpt lat="45.6613725" lon="10.1285079"><ele>533.0</ele><time>2026-05-04T18:16:50.893Z</time></trkpt><trkpt lat="45.6614691" lon="10.1286209"><ele>533.0</ele><time>2026-05-04T18:16:51.892Z</time></trkpt><trkpt lat="45.6615641" lon="10.1287084"><ele>533.0</ele><time>2026-05-04T18:16:52.892Z</time></trkpt><trkpt lat="45.6616702" lon="10.1287926"><ele>533.0</ele><time>2026-05-04T18:16:53.892Z</time></trkpt><trkpt lat="45.6617915" lon="10.1288477"><ele>533.0</ele><time>2026-05-04T18:16:54.892Z</time></trkpt><trkpt lat="45.6619262" lon="10.1288936"><ele>536.75</ele><time>2026-05-04T18:16:55.892Z</time></trkpt><trkpt lat="45.6620585" lon="10.1289366"><ele>540.5</ele><time>2026-05-04T18:16:56.892Z</time></trkpt><trkpt lat="45.662212" lon="10.1289774"><ele>544.25</ele><time>2026-05-04T18:16:57.893Z</time></trkpt><trkpt lat="45.6623444" lon="10.1290615"><ele>548.0</ele><time>2026-05-04T18:16:58.892Z</time></trkpt><trkpt lat="45.6625117" lon="10.1291031"><ele>537.3333333333333</ele><time>2026-05-04T18:16:59.892Z</time></trkpt><trkpt lat="45.6626744" lon="10.1291601"><ele>526.6666666666666</ele><time>2026-05-04T18:17:00.892Z</time></trkpt><trkpt lat="45.6628382" lon="10.1292081"><ele>516.0</ele><time>2026-05-04T18:17:01.892Z</time></trkpt><trkpt lat="45.6630124" lon="10.1291932"><ele>516.0</ele><time>2026-05-04T18:17:02.892Z</time></trkpt><trkpt lat="45.663144" lon="10.1292538"><ele>516.0</ele><time>2026-05-04T18:17:03.892Z</time></trkpt><trkpt lat="45.6632477" lon="10.1293252"><ele>516.0</ele><time>2026-05-04T18:17:04.892Z</time></trkpt><trkpt lat="45.6633479" lon="10.1294304"><ele>516.0</ele><time>2026-05-04T18:17:05.892Z</time></trkpt><trkpt lat="45.6634486" lon="10.1295756"><ele>516.0</ele><time>2026-05-04T18:17:06.892Z</time></trkpt><trkpt lat="45.6634968" lon="10.1297608"><ele>516.0</ele><time>2026-05-04T18:17:07.892Z</time></trkpt><trkpt lat="45.6635767" lon="10.1299438"><ele>516.0</ele><time>2026-05-04T18:17:08.892Z</time></trkpt><trkpt lat="45.6636581" lon="10.1301524"><ele>512.6666666666666</ele><time>2026-05-04T18:17:09.893Z</time></trkpt><trkpt lat="45.663738" lon="10.1303548"><ele>509.3333333333333</ele><time>2026-05-04T18:17:10.892Z</time></trkpt><trkpt lat="45.6638303" lon="10.1305651"><ele>506.0</ele><time>2026-05-04T18:17:11.892Z</time></trkpt><trkpt lat="45.6639182" lon="10.1307887"><ele>506.0</ele><time>2026-05-04T18:17:12.892Z</time></trkpt><trkpt lat="45.6640056" lon="10.1309934"><ele>506.0</ele><time>2026-05-04T18:17:13.892Z</time></trkpt><trkpt lat="45.6640871" lon="10.1311963"><ele>506.0</ele><time>2026-05-04T18:17:14.892Z</time></trkpt><trkpt lat="45.664146" lon="10.1314075"><ele>502.66666666666663</ele><time>2026-05-04T18:17:15.892Z</time></trkpt><trkpt lat="45.6642003" lon="10.131631"><ele>499.33333333333337</ele><time>2026-05-04T18:17:16.892Z</time></trkpt><trkpt lat="45.6641609" lon="10.1318394"><ele>496.0</ele><time>2026-05-04T18:17:17.892Z</time></trkpt><trkpt lat="45.6641527" lon="10.1320602"><ele>496.0</ele><time>2026-05-04T18:17:18.893Z</time></trkpt><trkpt lat="45.6641362" lon="10.1322502"><ele>496.0</ele><time>2026-05-04T18:17:19.893Z</time></trkpt><trkpt lat="45.6641068" lon="10.1324152"><ele>496.0</ele><time>2026-05-04T18:17:20.892Z</time></trkpt><trkpt lat="45.6640545" lon="10.1326094"><ele>496.0</ele><time>2026-05-04T18:17:21.892Z</time></trkpt><trkpt lat="45.6639451" lon="10.1326836"><ele>495.0</ele><time>2026-05-04T18:17:22.892Z</time></trkpt><trkpt lat="45.663893" lon="10.1328361"><ele>494.0</ele><time>2026-05-04T18:17:23.892Z</time></trkpt><trkpt lat="45.6638673" lon="10.1329747"><ele>493.0</ele><time>2026-05-04T18:17:24.892Z</time></trkpt><trkpt lat="45.6638378" lon="10.1331267"><ele>492.0</ele><time>2026-05-04T18:17:25.892Z</time></trkpt><trkpt lat="45.663859" lon="10.1332444"><ele>491.0</ele><time>2026-05-04T18:17:26.893Z</time></trkpt><trkpt lat="45.663866" lon="10.1334006"><ele>484.5</ele><time>2026-05-04T18:17:27.892Z</time></trkpt><trkpt lat="45.6642456" lon="10.1336071"><ele>478.0</ele><time>2026-05-04T18:17:29.892Z</time></trkpt><trkpt lat="45.6643238" lon="10.1337426"><ele>478.0</ele><time>2026-05-04T18:17:30.892Z</time></trkpt><trkpt lat="45.6643899" lon="10.1338764"><ele>478.0</ele><time>2026-05-04T18:17:31.892Z</time></trkpt><trkpt lat="45.664431" lon="10.1340215"><ele>478.0</ele><time>2026-05-04T18:17:32.892Z</time></trkpt><trkpt lat="45.6644885" lon="10.1341236"><ele>478.0</ele><time>2026-05-04T18:17:33.892Z</time></trkpt><trkpt lat="45.664389" lon="10.1342753"><ele>475.6666666666667</ele><time>2026-05-04T18:17:34.892Z</time></trkpt><trkpt lat="45.6643484" lon="10.1345006"><ele>473.33333333333337</ele><time>2026-05-04T18:17:35.892Z</time></trkpt><trkpt lat="45.6643452" lon="10.1347325"><ele>471.0</ele><time>2026-05-04T18:17:36.892Z</time></trkpt><trkpt lat="45.6643484" lon="10.1349767"><ele>470.0</ele><time>2026-05-04T18:17:37.892Z</time></trkpt><trkpt lat="45.664351" lon="10.135221"><ele>469.0</ele><time>2026-05-04T18:17:38.892Z</time></trkpt><trkpt lat="45.6643335" lon="10.1354627"><ele>468.0</ele><time>2026-05-04T18:17:39.892Z</time></trkpt><trkpt lat="45.664342" lon="10.1357131"><ele>464.66666666666663</ele><time>2026-05-04T18:17:40.892Z</time></trkpt><trkpt lat="45.6643302" lon="10.1359708"><ele>461.3333333333333</ele><time>2026-05-04T18:17:41.892Z</time></trkpt><trkpt lat="45.6643072" lon="10.1362225"><ele>458.0</ele><time>2026-05-04T18:17:42.892Z</time></trkpt><trkpt lat="45.6642535" lon="10.1364576"><ele>457.0</ele><time>2026-05-04T18:17:43.892Z</time></trkpt><trkpt lat="45.664246" lon="10.1366961"><ele>456.0</ele><time>2026-05-04T18:17:44.892Z</time></trkpt><trkpt lat="45.6642243" lon="10.1369467"><ele>455.0</ele><time>2026-05-04T18:17:45.892Z</time></trkpt><trkpt lat="45.6642422" lon="10.1371827"><ele>453.0</ele><time>2026-05-04T18:17:46.892Z</time></trkpt><trkpt lat="45.6642482" lon="10.1374038"><ele>451.0</ele><time>2026-05-04T18:17:47.893Z</time></trkpt><trkpt lat="45.6642748" lon="10.1376297"><ele>449.0</ele><time>2026-05-04T18:17:48.892Z</time></trkpt><trkpt lat="45.6643209" lon="10.1378434"><ele>449.0</ele><time>2026-05-04T18:17:49.892Z</time></trkpt><trkpt lat="45.6644" lon="10.1380388"><ele>449.0</ele><time>2026-05-04T18:17:50.892Z</time></trkpt><trkpt lat="45.664486" lon="10.1382447"><ele>449.0</ele><time>2026-05-04T18:17:51.892Z</time></trkpt><trkpt lat="45.6646283" lon="10.1383825"><ele>450.66666666666663</ele><time>2026-05-04T18:17:52.892Z</time></trkpt><trkpt lat="45.6647474" lon="10.1385575"><ele>452.33333333333337</ele><time>2026-05-04T18:17:53.893Z</time></trkpt><trkpt lat="45.6648713" lon="10.1387259"><ele>454.0</ele><time>2026-05-04T18:17:54.892Z</time></trkpt><trkpt lat="45.6649767" lon="10.1388976"><ele>452.0</ele><time>2026-05-04T18:17:55.892Z</time></trkpt><trkpt lat="45.6651128" lon="10.1390578"><ele>450.0</ele><time>2026-05-04T18:17:56.892Z</time></trkpt><trkpt lat="45.6652404" lon="10.1392136"><ele>448.0</ele><time>2026-05-04T18:17:57.892Z</time></trkpt><trkpt lat="45.6653592" lon="10.1393715"><ele>448.0</ele><time>2026-05-04T18:17:58.892Z</time></trkpt><trkpt lat="45.6654955" lon="10.1395195"><ele>448.0</ele><time>2026-05-04T18:17:59.893Z</time></trkpt><trkpt lat="45.665631" lon="10.1396631"><ele>448.0</ele><time>2026-05-04T18:18:00.892Z</time></trkpt><trkpt lat="45.6657334" lon="10.1398167"><ele>441.6666666666667</ele><time>2026-05-04T18:18:01.892Z</time></trkpt><trkpt lat="45.665864" lon="10.1399606"><ele>435.33333333333337</ele><time>2026-05-04T18:18:02.892Z</time></trkpt><trkpt lat="45.6659874" lon="10.1400952"><ele>429.0</ele><time>2026-05-04T18:18:03.892Z</time></trkpt><trkpt lat="45.6661107" lon="10.1402371"><ele>434.0</ele><time>2026-05-04T18:18:04.893Z</time></trkpt><trkpt lat="45.6662437" lon="10.1403751"><ele>439.0</ele><time>2026-05-04T18:18:05.893Z</time></trkpt><trkpt lat="45.6664297" lon="10.1404806"><ele>444.0</ele><time>2026-05-04T18:18:06.892Z</time></trkpt><trkpt lat="45.6665341" lon="10.1406498"><ele>435.5</ele><time>2026-05-04T18:18:07.892Z</time></trkpt><trkpt lat="45.6666477" lon="10.1408201"><ele>427.0</ele><time>2026-05-04T18:18:08.892Z</time></trkpt><trkpt lat="45.6669194" lon="10.1413672"><ele>427.6666666666667</ele><time>2026-05-04T18:18:11.978Z</time></trkpt><trkpt lat="45.6670097" lon="10.1415535"><ele>428.33333333333337</ele><time>2026-05-04T18:18:12.982Z</time></trkpt><trkpt lat="45.6670838" lon="10.1417563"><ele>429.0</ele><time>2026-05-04T18:18:13.892Z</time></trkpt><trkpt lat="45.6671811" lon="10.1419433"><ele>429.0</ele><time>2026-05-04T18:18:14.988Z</time></trkpt><trkpt lat="45.6673298" lon="10.1423395"><ele>429.0</ele><time>2026-05-04T18:18:16.895Z</time></trkpt><trkpt lat="45.6674078" lon="10.1425431"><ele>427.33333333333337</ele><time>2026-05-04T18:18:17.896Z</time></trkpt><trkpt lat="45.6674834" lon="10.1427494"><ele>425.6666666666667</ele><time>2026-05-04T18:18:18.895Z</time></trkpt><trkpt lat="45.6675935" lon="10.1429372"><ele>424.0</ele><time>2026-05-04T18:18:19.895Z</time></trkpt><trkpt lat="45.6676907" lon="10.1431308"><ele>424.33333333333337</ele><time>2026-05-04T18:18:20.895Z</time></trkpt><trkpt lat="45.6677753" lon="10.1433308"><ele>424.66666666666663</ele><time>2026-05-04T18:18:21.896Z</time></trkpt><trkpt lat="45.6679153" lon="10.1435097"><ele>425.0</ele><time>2026-05-04T18:18:22.895Z</time></trkpt><trkpt lat="45.6680113" lon="10.1437156"><ele>425.0</ele><time>2026-05-04T18:18:23.895Z</time></trkpt><trkpt lat="45.6680966" lon="10.1439111"><ele>425.0</ele><time>2026-05-04T18:18:24.895Z</time></trkpt><trkpt lat="45.6682774" lon="10.1440466"><ele>425.0</ele><time>2026-05-04T18:18:25.895Z</time></trkpt><trkpt lat="45.6683845" lon="10.1442102"><ele>422.75</ele><time>2026-05-04T18:18:26.895Z</time></trkpt><trkpt lat="45.6684704" lon="10.1443914"><ele>420.5</ele><time>2026-05-04T18:18:27.895Z</time></trkpt><trkpt lat="45.6685274" lon="10.1445795"><ele>418.25</ele><time>2026-05-04T18:18:28.896Z</time></trkpt><trkpt lat="45.6685794" lon="10.1447758"><ele>416.0</ele><time>2026-05-04T18:18:29.895Z</time></trkpt><trkpt lat="45.668541" lon="10.1449971"><ele>416.0</ele><time>2026-05-04T18:18:30.895Z</time></trkpt><trkpt lat="45.6685259" lon="10.1452228"><ele>416.0</ele><time>2026-05-04T18:18:31.895Z</time></trkpt><trkpt lat="45.6685097" lon="10.1454341"><ele>416.0</ele><time>2026-05-04T18:18:32.896Z</time></trkpt><trkpt lat="45.6685108" lon="10.1456434"><ele>415.5</ele><time>2026-05-04T18:18:33.896Z</time></trkpt><trkpt lat="45.6685368" lon="10.1458419"><ele>415.0</ele><time>2026-05-04T18:18:34.895Z</time></trkpt><trkpt lat="45.6685678" lon="10.1460697"><ele>414.5</ele><time>2026-05-04T18:18:35.895Z</time></trkpt><trkpt lat="45.6686254" lon="10.1462503"><ele>414.0</ele><time>2026-05-04T18:18:36.895Z</time></trkpt><trkpt lat="45.6688024" lon="10.1463597"><ele>414.0</ele><time>2026-05-04T18:18:37.895Z</time></trkpt><trkpt lat="45.6688989" lon="10.1465386"><ele>414.0</ele><time>2026-05-04T18:18:38.895Z</time></trkpt><trkpt lat="45.6689868" lon="10.1467338"><ele>414.0</ele><time>2026-05-04T18:18:39.895Z</time></trkpt><trkpt lat="45.6690556" lon="10.1469313"><ele>411.0</ele><time>2026-05-04T18:18:40.895Z</time></trkpt><trkpt lat="45.6691056" lon="10.1471321"><ele>408.0</ele><time>2026-05-04T18:18:41.895Z</time></trkpt><trkpt lat="45.6691502" lon="10.1473213"><ele>405.0</ele><time>2026-05-04T18:18:42.895Z</time></trkpt><trkpt lat="45.669168" lon="10.1474935"><ele>402.0</ele><time>2026-05-04T18:18:43.895Z</time></trkpt><trkpt lat="45.6691809" lon="10.1476565"><ele>400.40000000000003</ele><time>2026-05-04T18:18:44.895Z</time></trkpt><trkpt lat="45.6691873" lon="10.1478131"><ele>398.8</ele><time>2026-05-04T18:18:45.895Z</time></trkpt><trkpt lat="45.6691885" lon="10.1479633"><ele>397.2</ele><time>2026-05-04T18:18:46.895Z</time></trkpt><trkpt lat="45.6691825" lon="10.1481094"><ele>395.6</ele><time>2026-05-04T18:18:47.895Z</time></trkpt><trkpt lat="45.6691735" lon="10.1482548"><ele>394.0</ele><time>2026-05-04T18:18:48.895Z</time></trkpt><trkpt lat="45.6691558" lon="10.1484041"><ele>393.0</ele><time>2026-05-04T18:18:49.895Z</time></trkpt><trkpt lat="45.6690716" lon="10.1485931"><ele>392.0</ele><time>2026-05-04T18:18:51.896Z</time></trkpt><trkpt lat="45.6690028" lon="10.1487096"><ele>391.0</ele><time>2026-05-04T18:18:52.895Z</time></trkpt><trkpt lat="45.6689201" lon="10.1487982"><ele>390.0</ele><time>2026-05-04T18:18:53.895Z</time></trkpt><trkpt lat="45.6688407" lon="10.1488912"><ele>390.0</ele><time>2026-05-04T18:18:54.895Z</time></trkpt><trkpt lat="45.6687587" lon="10.1489863"><ele>390.0</ele><time>2026-05-04T18:18:55.895Z</time></trkpt><trkpt lat="45.6686684" lon="10.1490836"><ele>390.0</ele><time>2026-05-04T18:18:56.895Z</time></trkpt><trkpt lat="45.6685766" lon="10.1492022"><ele>390.0</ele><time>2026-05-04T18:18:57.895Z</time></trkpt><trkpt lat="45.6684831" lon="10.1493087"><ele>389.0</ele><time>2026-05-04T18:18:58.895Z</time></trkpt><trkpt lat="45.6683823" lon="10.1493988"><ele>388.0</ele><time>2026-05-04T18:18:59.895Z</time></trkpt><trkpt lat="45.6682746" lon="10.149506"><ele>387.0</ele><time>2026-05-04T18:19:00.895Z</time></trkpt><trkpt lat="45.6681727" lon="10.149638"><ele>386.0</ele><time>2026-05-04T18:19:01.895Z</time></trkpt><trkpt lat="45.6680779" lon="10.1497842"><ele>385.0</ele><time>2026-05-04T18:19:02.895Z</time></trkpt><trkpt lat="45.6679899" lon="10.149943"><ele>384.0</ele><time>2026-05-04T18:19:03.895Z</time></trkpt><trkpt lat="45.6679065" lon="10.1501006"><ele>383.0</ele><time>2026-05-04T18:19:04.896Z</time></trkpt><trkpt lat="45.6678297" lon="10.1502693"><ele>382.0</ele><time>2026-05-04T18:19:05.895Z</time></trkpt><trkpt lat="45.6677682" lon="10.1504396"><ele>382.0</ele><time>2026-05-04T18:19:06.895Z</time></trkpt><trkpt lat="45.6677083" lon="10.150609"><ele>382.0</ele><time>2026-05-04T18:19:07.895Z</time></trkpt><trkpt lat="45.6676524" lon="10.1507921"><ele>382.0</ele><time>2026-05-04T18:19:08.895Z</time></trkpt><trkpt lat="45.6676133" lon="10.1509855"><ele>382.0</ele><time>2026-05-04T18:19:09.895Z</time></trkpt><trkpt lat="45.6675846" lon="10.1511778"><ele>382.0</ele><time>2026-05-04T18:19:10.895Z</time></trkpt><trkpt lat="45.6675687" lon="10.1513731"><ele>382.0</ele><time>2026-05-04T18:19:11.895Z</time></trkpt><trkpt lat="45.6675452" lon="10.1515619"><ele>382.0</ele><time>2026-05-04T18:19:12.895Z</time></trkpt><trkpt lat="45.6675489" lon="10.1517446"><ele>382.0</ele><time>2026-05-04T18:19:13.895Z</time></trkpt><trkpt lat="45.667545" lon="10.15193"><ele>379.25</ele><time>2026-05-04T18:19:14.895Z</time></trkpt><trkpt lat="45.6675268" lon="10.1521239"><ele>376.5</ele><time>2026-05-04T18:19:15.895Z</time></trkpt><trkpt lat="45.6675095" lon="10.1523207"><ele>373.75</ele><time>2026-05-04T18:19:16.895Z</time></trkpt><trkpt lat="45.6674941" lon="10.1525099"><ele>371.0</ele><time>2026-05-04T18:19:17.895Z</time></trkpt><trkpt lat="45.6674796" lon="10.1526852"><ele>370.5</ele><time>2026-05-04T18:19:18.895Z</time></trkpt><trkpt lat="45.6674684" lon="10.1528827"><ele>370.0</ele><time>2026-05-04T18:19:19.895Z</time></trkpt><trkpt lat="45.6674815" lon="10.1530821"><ele>369.5</ele><time>2026-05-04T18:19:20.895Z</time></trkpt><trkpt lat="45.6675049" lon="10.1532938"><ele>369.0</ele><time>2026-05-04T18:19:21.895Z</time></trkpt><trkpt lat="45.6675851" lon="10.1534853"><ele>367.3333333333333</ele><time>2026-05-04T18:19:22.896Z</time></trkpt><trkpt lat="45.6676472" lon="10.1537001"><ele>365.66666666666663</ele><time>2026-05-04T18:19:23.895Z</time></trkpt><trkpt lat="45.6676948" lon="10.1539127"><ele>364.0</ele><time>2026-05-04T18:19:24.896Z</time></trkpt><trkpt lat="45.6677532" lon="10.1541327"><ele>365.66666666666663</ele><time>2026-05-04T18:19:25.895Z</time></trkpt><trkpt lat="45.6678317" lon="10.1543364"><ele>367.3333333333333</ele><time>2026-05-04T18:19:26.895Z</time></trkpt><trkpt lat="45.6679079" lon="10.1545548"><ele>369.0</ele><time>2026-05-04T18:19:27.895Z</time></trkpt><trkpt lat="45.6679632" lon="10.1547889"><ele>366.6666666666667</ele><time>2026-05-04T18:19:28.895Z</time></trkpt><trkpt lat="45.668021" lon="10.1550144"><ele>364.33333333333337</ele><time>2026-05-04T18:19:29.895Z</time></trkpt><trkpt lat="45.6680722" lon="10.1552569"><ele>362.0</ele><time>2026-05-04T18:19:30.895Z</time></trkpt><trkpt lat="45.6681358" lon="10.1554976"><ele>361.0</ele><time>2026-05-04T18:19:31.895Z</time></trkpt><trkpt lat="45.6681969" lon="10.1557364"><ele>360.0</ele><time>2026-05-04T18:19:32.895Z</time></trkpt><trkpt lat="45.6682592" lon="10.1559648"><ele>359.0</ele><time>2026-05-04T18:19:33.895Z</time></trkpt><trkpt lat="45.6691936" lon="10.1602266"><ele>354.33333333333337</ele><time>2026-05-04T18:19:50.895Z</time></trkpt><trkpt lat="45.6693463" lon="10.1604974"><ele>349.6666666666667</ele><time>2026-05-04T18:19:51.893Z</time></trkpt><trkpt lat="45.6693924" lon="10.1607396"><ele>345.0</ele><time>2026-05-04T18:19:52.894Z</time></trkpt><trkpt lat="45.6694418" lon="10.1609748"><ele>345.0</ele><time>2026-05-04T18:19:53.896Z</time></trkpt><trkpt lat="45.6694257" lon="10.1611231"><ele>345.0</ele><time>2026-05-04T18:19:54.895Z</time></trkpt><trkpt lat="45.6694838" lon="10.1613473"><ele>345.0</ele><time>2026-05-04T18:19:55.899Z</time></trkpt><trkpt lat="45.6695434" lon="10.1615762"><ele>345.0</ele><time>2026-05-04T18:19:56.899Z</time></trkpt><trkpt lat="45.6696029" lon="10.1618051"><ele>343.0</ele><time>2026-05-04T18:19:57.899Z</time></trkpt><trkpt lat="45.6697134" lon="10.1638535"><ele>347.0</ele><time>2026-05-04T18:20:06.038Z</time></trkpt><trkpt lat="45.6703101" lon="10.1653993"><ele>331.0</ele><time>2026-05-04T18:20:13.317Z</time></trkpt><trkpt lat="45.6706757" lon="10.1674949"><ele>330.0</ele><time>2026-05-04T18:20:20.018Z</time></trkpt><trkpt lat="45.670888" lon="10.168939"><ele>327.0</ele><time>2026-05-04T18:20:26.741Z</time></trkpt><trkpt lat="45.6709094" lon="10.1701963"><ele>327.0</ele><time>2026-05-04T18:20:32.731Z</time></trkpt><trkpt lat="45.6715571" lon="10.1721186"><ele>329.0</ele><time>2026-05-04T18:20:40.486Z</time></trkpt><trkpt lat="45.6713834" lon="10.1735379"><ele>329.0</ele><time>2026-05-04T18:20:45.987Z</time></trkpt><trkpt lat="45.6713579" lon="10.1737763"><ele>329.0</ele><time>2026-05-04T18:20:46.98Z</time></trkpt><trkpt lat="45.6712208" lon="10.1739705"><ele>329.0</ele><time>2026-05-04T18:20:48.99Z</time></trkpt><trkpt lat="45.6711515" lon="10.1741378"><ele>326.0</ele><time>2026-05-04T18:20:49.991Z</time></trkpt><trkpt lat="45.6710834" lon="10.1743297"><ele>323.0</ele><time>2026-05-04T18:20:50.987Z</time></trkpt><trkpt lat="45.6710216" lon="10.1745451"><ele>320.0</ele><time>2026-05-04T18:20:51.987Z</time></trkpt><trkpt lat="45.6709887" lon="10.1747742"><ele>319.33333333333337</ele><time>2026-05-04T18:20:52.987Z</time></trkpt><trkpt lat="45.670976" lon="10.175001"><ele>318.6666666666667</ele><time>2026-05-04T18:20:53.941Z</time></trkpt><trkpt lat="45.6709575" lon="10.1752452"><ele>318.0</ele><time>2026-05-04T18:20:54.987Z</time></trkpt><trkpt lat="45.6709811" lon="10.1754664"><ele>316.6666666666667</ele><time>2026-05-04T18:20:55.987Z</time></trkpt><trkpt lat="45.6709887" lon="10.1757019"><ele>315.33333333333337</ele><time>2026-05-04T18:20:56.987Z</time></trkpt><trkpt lat="45.6710059" lon="10.1759364"><ele>314.0</ele><time>2026-05-04T18:20:57.987Z</time></trkpt><trkpt lat="45.6710155" lon="10.1761754"><ele>314.0</ele><time>2026-05-04T18:20:58.987Z</time></trkpt><trkpt lat="45.6710201" lon="10.1764096"><ele>314.0</ele><time>2026-05-04T18:20:59.987Z</time></trkpt><trkpt lat="45.6709964" lon="10.1766473"><ele>314.0</ele><time>2026-05-04T18:21:00.987Z</time></trkpt><trkpt lat="45.6709597" lon="10.1768625"><ele>313.6666666666667</ele><time>2026-05-04T18:21:01.987Z</time></trkpt><trkpt lat="45.6709055" lon="10.177075"><ele>313.3333333333333</ele><time>2026-05-04T18:21:02.987Z</time></trkpt><trkpt lat="45.6708516" lon="10.1772774"><ele>313.0</ele><time>2026-05-04T18:21:03.936Z</time></trkpt><trkpt lat="45.6707568" lon="10.1774564"><ele>312.0</ele><time>2026-05-04T18:21:04.942Z</time></trkpt><trkpt lat="45.670692" lon="10.1776724"><ele>311.0</ele><time>2026-05-04T18:21:05.987Z</time></trkpt><trkpt lat="45.6706481" lon="10.1778891"><ele>310.0</ele><time>2026-05-04T18:21:06.987Z</time></trkpt><trkpt lat="45.6706203" lon="10.1781086"><ele>311.0</ele><time>2026-05-04T18:21:07.987Z</time></trkpt><trkpt lat="45.6706031" lon="10.1783331"><ele>312.0</ele><time>2026-05-04T18:21:08.987Z</time></trkpt><trkpt lat="45.6705811" lon="10.1785664"><ele>313.0</ele><time>2026-05-04T18:21:09.987Z</time></trkpt><trkpt lat="45.6705697" lon="10.1787912"><ele>313.0</ele><time>2026-05-04T18:21:10.987Z</time></trkpt><trkpt lat="45.670541" lon="10.1790215"><ele>313.0</ele><time>2026-05-04T18:21:11.987Z</time></trkpt><trkpt lat="45.6705197" lon="10.1792431"><ele>313.0</ele><time>2026-05-04T18:21:12.987Z</time></trkpt><trkpt lat="45.6705026" lon="10.1794592"><ele>313.0</ele><time>2026-05-04T18:21:13.987Z</time></trkpt><trkpt lat="45.6704818" lon="10.1796808"><ele>313.0</ele><time>2026-05-04T18:21:14.987Z</time></trkpt><trkpt lat="45.6704656" lon="10.1799031"><ele>313.0</ele><time>2026-05-04T18:21:15.929Z</time></trkpt><trkpt lat="45.6704481" lon="10.1801262"><ele>314.0</ele><time>2026-05-04T18:21:16.987Z</time></trkpt><trkpt lat="45.6704295" lon="10.1803485"><ele>315.0</ele><time>2026-05-04T18:21:17.987Z</time></trkpt><trkpt lat="45.670405" lon="10.1805536"><ele>316.0</ele><time>2026-05-04T18:21:18.987Z</time></trkpt><trkpt lat="45.670397" lon="10.1807835"><ele>316.0</ele><time>2026-05-04T18:21:19.987Z</time></trkpt><trkpt lat="45.6703744" lon="10.1809984"><ele>316.0</ele><time>2026-05-04T18:21:20.987Z</time></trkpt><trkpt lat="45.6703442" lon="10.1812154"><ele>316.0</ele><time>2026-05-04T18:21:21.987Z</time></trkpt><trkpt lat="45.6703045" lon="10.1814345"><ele>311.66666666666663</ele><time>2026-05-04T18:21:22.988Z</time></trkpt><trkpt lat="45.6702576" lon="10.1816416"><ele>307.3333333333333</ele><time>2026-05-04T18:21:23.987Z</time></trkpt><trkpt lat="45.6702098" lon="10.1818501"><ele>303.0</ele><time>2026-05-04T18:21:24.987Z</time></trkpt><trkpt lat="45.6701594" lon="10.1820645"><ele>303.0</ele><time>2026-05-04T18:21:25.987Z</time></trkpt><trkpt lat="45.6701081" lon="10.1822703"><ele>303.0</ele><time>2026-05-04T18:21:26.988Z</time></trkpt><trkpt lat="45.6700604" lon="10.1824704"><ele>303.0</ele><time>2026-05-04T18:21:27.987Z</time></trkpt><trkpt lat="45.6700129" lon="10.1826684"><ele>303.0</ele><time>2026-05-04T18:21:28.987Z</time></trkpt><trkpt lat="45.6699595" lon="10.1828668"><ele>303.75</ele><time>2026-05-04T18:21:29.987Z</time></trkpt><trkpt lat="45.6699261" lon="10.1830725"><ele>304.5</ele><time>2026-05-04T18:21:30.987Z</time></trkpt><trkpt lat="45.6699076" lon="10.1832824"><ele>305.25</ele><time>2026-05-04T18:21:31.963Z</time></trkpt><trkpt lat="45.6698944" lon="10.1834942"><ele>306.0</ele><time>2026-05-04T18:21:32.987Z</time></trkpt><trkpt lat="45.6698892" lon="10.1837074"><ele>306.25</ele><time>2026-05-04T18:21:33.987Z</time></trkpt><trkpt lat="45.669878" lon="10.1839135"><ele>306.5</ele><time>2026-05-04T18:21:34.987Z</time></trkpt><trkpt lat="45.6698771" lon="10.1841115"><ele>306.75</ele><time>2026-05-04T18:21:35.987Z</time></trkpt><trkpt lat="45.6698827" lon="10.1843152"><ele>307.0</ele><time>2026-05-04T18:21:36.987Z</time></trkpt><trkpt lat="45.6698974" lon="10.1845152"><ele>305.25</ele><time>2026-05-04T18:21:37.987Z</time></trkpt><trkpt lat="45.669923" lon="10.1847123"><ele>303.5</ele><time>2026-05-04T18:21:38.987Z</time></trkpt><trkpt lat="45.669962" lon="10.1849006"><ele>301.75</ele><time>2026-05-04T18:21:39.987Z</time></trkpt><trkpt lat="45.6700159" lon="10.1850808"><ele>300.0</ele><time>2026-05-04T18:21:40.987Z</time></trkpt><trkpt lat="45.6700797" lon="10.1852521"><ele>298.75</ele><time>2026-05-04T18:21:41.987Z</time></trkpt><trkpt lat="45.6701638" lon="10.1854158"><ele>297.5</ele><time>2026-05-04T18:21:42.987Z</time></trkpt><trkpt lat="45.6702518" lon="10.1855848"><ele>296.25</ele><time>2026-05-04T18:21:43.987Z</time></trkpt><trkpt lat="45.6703578" lon="10.1857437"><ele>295.0</ele><time>2026-05-04T18:21:44.987Z</time></trkpt><trkpt lat="45.6704563" lon="10.185904"><ele>295.0</ele><time>2026-05-04T18:21:45.987Z</time></trkpt><trkpt lat="45.6705488" lon="10.1860674"><ele>295.0</ele><time>2026-05-04T18:21:46.987Z</time></trkpt><trkpt lat="45.6706325" lon="10.1862124"><ele>295.0</ele><time>2026-05-04T18:21:47.987Z</time></trkpt><trkpt lat="45.6707204" lon="10.1863567"><ele>295.0</ele><time>2026-05-04T18:21:48.987Z</time></trkpt><trkpt lat="45.6707998" lon="10.1864703"><ele>294.5</ele><time>2026-05-04T18:21:49.987Z</time></trkpt><trkpt lat="45.6708725" lon="10.1866122"><ele>294.0</ele><time>2026-05-04T18:21:50.987Z</time></trkpt><trkpt lat="45.6709419" lon="10.1867501"><ele>293.5</ele><time>2026-05-04T18:21:51.987Z</time></trkpt><trkpt lat="45.67101" lon="10.1869017"><ele>293.0</ele><time>2026-05-04T18:21:52.987Z</time></trkpt><trkpt lat="45.6710737" lon="10.1870422"><ele>293.1666666666667</ele><time>2026-05-04T18:21:53.987Z</time></trkpt><trkpt lat="45.6711485" lon="10.187166"><ele>293.33333333333337</ele><time>2026-05-04T18:21:54.988Z</time></trkpt><trkpt lat="45.6712114" lon="10.187255"><ele>293.5</ele><time>2026-05-04T18:21:55.987Z</time></trkpt><trkpt lat="45.6712547" lon="10.1873702"><ele>293.6666666666667</ele><time>2026-05-04T18:21:56.987Z</time></trkpt><trkpt lat="45.6712495" lon="10.1874782"><ele>293.8333333333333</ele><time>2026-05-04T18:21:57.987Z</time></trkpt><trkpt lat="45.6712229" lon="10.1875817"><ele>294.0</ele><time>2026-05-04T18:21:58.987Z</time></trkpt><trkpt lat="45.6711768" lon="10.1876824"><ele>293.8</ele><time>2026-05-04T18:21:59.987Z</time></trkpt><trkpt lat="45.6711061" lon="10.1877537"><ele>293.59999999999997</ele><time>2026-05-04T18:22:00.987Z</time></trkpt><trkpt lat="45.6710337" lon="10.1878489"><ele>293.4</ele><time>2026-05-04T18:22:01.987Z</time></trkpt><trkpt lat="45.670951" lon="10.1879534"><ele>293.2</ele><time>2026-05-04T18:22:02.987Z</time></trkpt><trkpt lat="45.6708747" lon="10.1880759"><ele>293.0</ele><time>2026-05-04T18:22:03.988Z</time></trkpt><trkpt lat="45.6707802" lon="10.1882044"><ele>292.5</ele><time>2026-05-04T18:22:04.987Z</time></trkpt><trkpt lat="45.6706969" lon="10.1883347"><ele>292.0</ele><time>2026-05-04T18:22:05.987Z</time></trkpt><trkpt lat="45.6706061" lon="10.1884642"><ele>291.5</ele><time>2026-05-04T18:22:06.987Z</time></trkpt><trkpt lat="45.6705152" lon="10.1885987"><ele>291.0</ele><time>2026-05-04T18:22:07.987Z</time></trkpt><trkpt lat="45.6704141" lon="10.1887078"><ele>291.0</ele><time>2026-05-04T18:22:08.987Z</time></trkpt><trkpt lat="45.6703289" lon="10.1888342"><ele>291.0</ele><time>2026-05-04T18:22:09.988Z</time></trkpt><trkpt lat="45.6702399" lon="10.1889877"><ele>291.0</ele><time>2026-05-04T18:22:10.987Z</time></trkpt><trkpt lat="45.6701405" lon="10.189117"><ele>291.0</ele><time>2026-05-04T18:22:11.987Z</time></trkpt><trkpt lat="45.6700496" lon="10.1892614"><ele>290.3333333333333</ele><time>2026-05-04T18:22:12.987Z</time></trkpt><trkpt lat="45.6699555" lon="10.1894013"><ele>289.66666666666663</ele><time>2026-05-04T18:22:13.987Z</time></trkpt><trkpt lat="45.669821" lon="10.1895691"><ele>289.0</ele><time>2026-05-04T18:22:14.987Z</time></trkpt><trkpt lat="45.6697146" lon="10.1897097"><ele>289.5</ele><time>2026-05-04T18:22:15.987Z</time></trkpt><trkpt lat="45.6696076" lon="10.1898554"><ele>290.0</ele><time>2026-05-04T18:22:16.987Z</time></trkpt><trkpt lat="45.669501" lon="10.1900011"><ele>290.5</ele><time>2026-05-04T18:22:17.987Z</time></trkpt><trkpt lat="45.6693941" lon="10.1901535"><ele>291.0</ele><time>2026-05-04T18:22:18.987Z</time></trkpt><trkpt lat="45.669294" lon="10.1902243"><ele>291.0</ele><time>2026-05-04T18:22:19.987Z</time></trkpt><trkpt lat="45.6691414" lon="10.1903847"><ele>291.0</ele><time>2026-05-04T18:22:20.987Z</time></trkpt><trkpt lat="45.6690145" lon="10.1905282"><ele>291.0</ele><time>2026-05-04T18:22:21.987Z</time></trkpt><trkpt lat="45.6688979" lon="10.1906882"><ele>291.5</ele><time>2026-05-04T18:22:22.987Z</time></trkpt><trkpt lat="45.6687618" lon="10.1908949"><ele>292.0</ele><time>2026-05-04T18:22:23.987Z</time></trkpt><trkpt lat="45.6685382" lon="10.1912138"><ele>291.5</ele><time>2026-05-04T18:22:25.987Z</time></trkpt><trkpt lat="45.6684382" lon="10.1913037"><ele>291.0</ele><time>2026-05-04T18:22:26.987Z</time></trkpt><trkpt lat="45.6683328" lon="10.1914252"><ele>290.5</ele><time>2026-05-04T18:22:27.988Z</time></trkpt><trkpt lat="45.6682317" lon="10.1915726"><ele>290.0</ele><time>2026-05-04T18:22:28.987Z</time></trkpt><trkpt lat="45.6681413" lon="10.1916936"><ele>289.8</ele><time>2026-05-04T18:22:29.987Z</time></trkpt><trkpt lat="45.668044" lon="10.1917622"><ele>289.6</ele><time>2026-05-04T18:22:30.987Z</time></trkpt><trkpt lat="45.6679369" lon="10.1918215"><ele>289.4</ele><time>2026-05-04T18:22:31.988Z</time></trkpt><trkpt lat="45.667842" lon="10.1918487"><ele>289.2</ele><time>2026-05-04T18:22:32.987Z</time></trkpt><trkpt lat="45.6677571" lon="10.1919225"><ele>289.0</ele><time>2026-05-04T18:22:33.934Z</time></trkpt><trkpt lat="45.6676707" lon="10.1919978"><ele>288.59999999999997</ele><time>2026-05-04T18:22:34.987Z</time></trkpt><trkpt lat="45.6676446" lon="10.1921607"><ele>288.2</ele><time>2026-05-04T18:22:35.987Z</time></trkpt><trkpt lat="45.667601" lon="10.1922734"><ele>287.79999999999995</ele><time>2026-05-04T18:22:36.987Z</time></trkpt><trkpt lat="45.6675593" lon="10.1924267"><ele>287.4</ele><time>2026-05-04T18:22:37.936Z</time></trkpt><trkpt lat="45.6674957" lon="10.1925844"><ele>287.0</ele><time>2026-05-04T18:22:38.987Z</time></trkpt><trkpt lat="45.6674264" lon="10.1926993"><ele>287.0</ele><time>2026-05-04T18:22:39.987Z</time></trkpt><trkpt lat="45.6672497" lon="10.1928107"><ele>287.0</ele><time>2026-05-04T18:22:40.94Z</time></trkpt><trkpt lat="45.6671473" lon="10.1929332"><ele>287.0</ele><time>2026-05-04T18:22:41.987Z</time></trkpt><trkpt lat="45.6670524" lon="10.193058"><ele>285.0</ele><time>2026-05-04T18:22:42.987Z</time></trkpt><trkpt lat="45.6659801" lon="10.19443"><ele>287.0</ele><time>2026-05-04T18:22:51.217Z</time></trkpt><trkpt lat="45.6647213" lon="10.1956869"><ele>287.0</ele><time>2026-05-04T18:23:00.983Z</time></trkpt><trkpt lat="45.6646037" lon="10.1957807"><ele>287.0</ele><time>2026-05-04T18:23:01.947Z</time></trkpt><trkpt lat="45.664447" lon="10.1959552"><ele>287.0</ele><time>2026-05-04T18:23:02.986Z</time></trkpt><trkpt lat="45.6643483" lon="10.1960169"><ele>287.0</ele><time>2026-05-04T18:23:03.985Z</time></trkpt><trkpt lat="45.6642357" lon="10.1961291"><ele>287.0</ele><time>2026-05-04T18:23:04.978Z</time></trkpt><trkpt lat="45.6641334" lon="10.1962565"><ele>287.0</ele><time>2026-05-04T18:23:05.99Z</time></trkpt><trkpt lat="45.6640077" lon="10.1963684"><ele>287.0</ele><time>2026-05-04T18:23:06.99Z</time></trkpt><trkpt lat="45.6638785" lon="10.1964864"><ele>287.0</ele><time>2026-05-04T18:23:07.935Z</time></trkpt><trkpt lat="45.6637495" lon="10.1965881"><ele>287.0</ele><time>2026-05-04T18:23:08.991Z</time></trkpt><trkpt lat="45.6636259" lon="10.1966939"><ele>287.0</ele><time>2026-05-04T18:23:09.99Z</time></trkpt><trkpt lat="45.6635038" lon="10.1967976"><ele>287.0</ele><time>2026-05-04T18:23:10.99Z</time></trkpt><trkpt lat="45.6633851" lon="10.1969144"><ele>287.0</ele><time>2026-05-04T18:23:11.99Z</time></trkpt><trkpt lat="45.6632663" lon="10.1970224"><ele>285.5</ele><time>2026-05-04T18:23:12.99Z</time></trkpt><trkpt lat="45.6631407" lon="10.1971208"><ele>284.0</ele><time>2026-05-04T18:23:13.99Z</time></trkpt><trkpt lat="45.6630045" lon="10.1972134"><ele>282.5</ele><time>2026-05-04T18:23:14.99Z</time></trkpt><trkpt lat="45.6628687" lon="10.1972815"><ele>281.0</ele><time>2026-05-04T18:23:15.99Z</time></trkpt><trkpt lat="45.6627369" lon="10.1972956"><ele>280.6666666666667</ele><time>2026-05-04T18:23:16.99Z</time></trkpt><trkpt lat="45.662608" lon="10.1973106"><ele>280.3333333333333</ele><time>2026-05-04T18:23:17.933Z</time></trkpt><trkpt lat="45.6624527" lon="10.1973519"><ele>280.0</ele><time>2026-05-04T18:23:18.99Z</time></trkpt><trkpt lat="45.6622757" lon="10.1973514"><ele>280.5</ele><time>2026-05-04T18:23:19.99Z</time></trkpt><trkpt lat="45.6621246" lon="10.1973595"><ele>281.0</ele><time>2026-05-04T18:23:20.99Z</time></trkpt><trkpt lat="45.6619823" lon="10.1973717"><ele>281.5</ele><time>2026-05-04T18:23:21.991Z</time></trkpt><trkpt lat="45.6618271" lon="10.1973829"><ele>282.0</ele><time>2026-05-04T18:23:22.991Z</time></trkpt><trkpt lat="45.6616597" lon="10.1974194"><ele>280.3333333333333</ele><time>2026-05-04T18:23:23.99Z</time></trkpt><trkpt lat="45.6615057" lon="10.1974388"><ele>278.66666666666663</ele><time>2026-05-04T18:23:24.99Z</time></trkpt><trkpt lat="45.6613581" lon="10.1974638"><ele>277.0</ele><time>2026-05-04T18:23:25.99Z</time></trkpt><trkpt lat="45.6612053" lon="10.1974929"><ele>276.66666666666663</ele><time>2026-05-04T18:23:26.99Z</time></trkpt><trkpt lat="45.661048" lon="10.1975061"><ele>276.3333333333333</ele><time>2026-05-04T18:23:27.99Z</time></trkpt><trkpt lat="45.6608874" lon="10.1975374"><ele>276.0</ele><time>2026-05-04T18:23:28.99Z</time></trkpt><trkpt lat="45.6607339" lon="10.1975547"><ele>276.0</ele><time>2026-05-04T18:23:29.99Z</time></trkpt><trkpt lat="45.6605828" lon="10.1975646"><ele>276.0</ele><time>2026-05-04T18:23:30.991Z</time></trkpt><trkpt lat="45.6604226" lon="10.1975837"><ele>276.0</ele><time>2026-05-04T18:23:31.99Z</time></trkpt><trkpt lat="45.6602687" lon="10.1976096"><ele>275.25</ele><time>2026-05-04T18:23:32.99Z</time></trkpt><trkpt lat="45.6601265" lon="10.1976342"><ele>274.5</ele><time>2026-05-04T18:23:33.99Z</time></trkpt><trkpt lat="45.6599906" lon="10.1976262"><ele>273.75</ele><time>2026-05-04T18:23:34.99Z</time></trkpt><trkpt lat="45.6598623" lon="10.197599"><ele>273.0</ele><time>2026-05-04T18:23:35.99Z</time></trkpt><trkpt lat="45.6597364" lon="10.197595"><ele>273.0</ele><time>2026-05-04T18:23:36.99Z</time></trkpt><trkpt lat="45.659607" lon="10.1976069"><ele>273.0</ele><time>2026-05-04T18:23:37.99Z</time></trkpt><trkpt lat="45.6594734" lon="10.1976346"><ele>273.0</ele><time>2026-05-04T18:23:38.99Z</time></trkpt><trkpt lat="45.6593677" lon="10.1977311"><ele>273.0</ele><time>2026-05-04T18:23:39.99Z</time></trkpt><trkpt lat="45.6592301" lon="10.1977718"><ele>272.75</ele><time>2026-05-04T18:23:40.99Z</time></trkpt><trkpt lat="45.6591015" lon="10.1978146"><ele>272.5</ele><time>2026-05-04T18:23:41.99Z</time></trkpt><trkpt lat="45.6589682" lon="10.1978527"><ele>272.25</ele><time>2026-05-04T18:23:42.99Z</time></trkpt><trkpt lat="45.658835" lon="10.197892"><ele>272.0</ele><time>2026-05-04T18:23:43.938Z</time></trkpt><trkpt lat="45.6587245" lon="10.1978679"><ele>272.0</ele><time>2026-05-04T18:23:44.938Z</time></trkpt><trkpt lat="45.658572" lon="10.1980107"><ele>272.0</ele><time>2026-05-04T18:23:45.991Z</time></trkpt><trkpt lat="45.6584408" lon="10.1980954"><ele>272.0</ele><time>2026-05-04T18:23:46.934Z</time></trkpt><trkpt lat="45.6582997" lon="10.1981623"><ele>272.0</ele><time>2026-05-04T18:23:47.947Z</time></trkpt><trkpt lat="45.6581636" lon="10.1982289"><ele>272.0</ele><time>2026-05-04T18:23:48.939Z</time></trkpt><trkpt lat="45.6579113" lon="10.1983443"><ele>272.0</ele><time>2026-05-04T18:23:50.99Z</time></trkpt><trkpt lat="45.6577582" lon="10.1984042"><ele>271.6666666666667</ele><time>2026-05-04T18:23:51.937Z</time></trkpt><trkpt lat="45.6576295" lon="10.1984569"><ele>271.3333333333333</ele><time>2026-05-04T18:23:52.935Z</time></trkpt><trkpt lat="45.657462" lon="10.1985462"><ele>271.0</ele><time>2026-05-04T18:23:53.937Z</time></trkpt><trkpt lat="45.6573238" lon="10.1986106"><ele>271.0</ele><time>2026-05-04T18:23:54.991Z</time></trkpt><trkpt lat="45.6571784" lon="10.1986721"><ele>271.0</ele><time>2026-05-04T18:23:55.99Z</time></trkpt><trkpt lat="45.657019" lon="10.1987683"><ele>271.0</ele><time>2026-05-04T18:23:56.937Z</time></trkpt><trkpt lat="45.6568873" lon="10.198797"><ele>270.5</ele><time>2026-05-04T18:23:57.99Z</time></trkpt><trkpt lat="45.656747" lon="10.1988286"><ele>270.0</ele><time>2026-05-04T18:23:58.99Z</time></trkpt><trkpt lat="45.6566329" lon="10.1988649"><ele>269.5</ele><time>2026-05-04T18:23:59.99Z</time></trkpt><trkpt lat="45.6565037" lon="10.1989021"><ele>269.0</ele><time>2026-05-04T18:24:00.99Z</time></trkpt><trkpt lat="45.6563583" lon="10.1989968"><ele>269.6666666666667</ele><time>2026-05-04T18:24:01.99Z</time></trkpt><trkpt lat="45.6562209" lon="10.1990031"><ele>270.3333333333333</ele><time>2026-05-04T18:24:02.99Z</time></trkpt><trkpt lat="45.6560876" lon="10.1990785"><ele>271.0</ele><time>2026-05-04T18:24:03.99Z</time></trkpt><trkpt lat="45.6559345" lon="10.1992023"><ele>271.0</ele><time>2026-05-04T18:24:04.99Z</time></trkpt><trkpt lat="45.6557475" lon="10.1992569"><ele>271.0</ele><time>2026-05-04T18:24:05.99Z</time></trkpt><trkpt lat="45.6555778" lon="10.1992982"><ele>271.0</ele><time>2026-05-04T18:24:06.99Z</time></trkpt><trkpt lat="45.6554349" lon="10.1993627"><ele>271.0</ele><time>2026-05-04T18:24:07.99Z</time></trkpt><trkpt lat="45.6552958" lon="10.1993975"><ele>271.0</ele><time>2026-05-04T18:24:08.99Z</time></trkpt><trkpt lat="45.6551384" lon="10.1994225"><ele>271.0</ele><time>2026-05-04T18:24:09.99Z</time></trkpt><trkpt lat="45.6549814" lon="10.1994461"><ele>269.66666666666663</ele><time>2026-05-04T18:24:10.99Z</time></trkpt><trkpt lat="45.654827" lon="10.1994235"><ele>268.3333333333333</ele><time>2026-05-04T18:24:11.99Z</time></trkpt><trkpt lat="45.6546836" lon="10.1995008"><ele>267.0</ele><time>2026-05-04T18:24:12.99Z</time></trkpt><trkpt lat="45.654547" lon="10.1995872"><ele>266.75</ele><time>2026-05-04T18:24:13.99Z</time></trkpt><trkpt lat="45.6544271" lon="10.199631"><ele>266.5</ele><time>2026-05-04T18:24:14.946Z</time></trkpt><trkpt lat="45.6543175" lon="10.1997074"><ele>266.25</ele><time>2026-05-04T18:24:15.944Z</time></trkpt><trkpt lat="45.6542243" lon="10.1997651"><ele>266.0</ele><time>2026-05-04T18:24:16.949Z</time></trkpt><trkpt lat="45.6541196" lon="10.1998038"><ele>266.0</ele><time>2026-05-04T18:24:17.99Z</time></trkpt><trkpt lat="45.6540322" lon="10.1998267"><ele>266.0</ele><time>2026-05-04T18:24:18.99Z</time></trkpt><trkpt lat="45.6539699" lon="10.1998927"><ele>266.0</ele><time>2026-05-04T18:24:19.99Z</time></trkpt><trkpt lat="45.6539246" lon="10.1999848"><ele>266.0</ele><time>2026-05-04T18:24:20.99Z</time></trkpt><trkpt lat="45.6538864" lon="10.2000661"><ele>266.0</ele><time>2026-05-04T18:24:21.99Z</time></trkpt><trkpt lat="45.6539552" lon="10.2001293"><ele>266.0</ele><time>2026-05-04T18:24:22.991Z</time></trkpt><trkpt lat="45.6540791" lon="10.2002566"><ele>266.40000000000003</ele><time>2026-05-04T18:24:24.99Z</time></trkpt><trkpt lat="45.6541468" lon="10.200326"><ele>266.8</ele><time>2026-05-04T18:24:25.99Z</time></trkpt><trkpt lat="45.6542265" lon="10.2004331"><ele>267.20000000000005</ele><time>2026-05-04T18:24:26.991Z</time></trkpt><trkpt lat="45.6542856" lon="10.2005557"><ele>267.6</ele><time>2026-05-04T18:24:27.99Z</time></trkpt><trkpt lat="45.6543334" lon="10.2007004"><ele>268.0</ele><time>2026-05-04T18:24:28.99Z</time></trkpt><trkpt lat="45.6543874" lon="10.2008511"><ele>268.5</ele><time>2026-05-04T18:24:29.99Z</time></trkpt><trkpt lat="45.654443" lon="10.2009983"><ele>269.0</ele><time>2026-05-04T18:24:30.99Z</time></trkpt><trkpt lat="45.654494" lon="10.2011604"><ele>269.5</ele><time>2026-05-04T18:24:31.99Z</time></trkpt><trkpt lat="45.6545481" lon="10.2013259"><ele>270.0</ele><time>2026-05-04T18:24:32.99Z</time></trkpt><trkpt lat="45.6546029" lon="10.2014806"><ele>270.8</ele><time>2026-05-04T18:24:33.99Z</time></trkpt><trkpt lat="45.654657" lon="10.2016154"><ele>271.6</ele><time>2026-05-04T18:24:34.99Z</time></trkpt><trkpt lat="45.6547155" lon="10.2017559"><ele>272.4</ele><time>2026-05-04T18:24:35.991Z</time></trkpt><trkpt lat="45.6547537" lon="10.2018973"><ele>273.2</ele><time>2026-05-04T18:24:36.99Z</time></trkpt><trkpt lat="45.6547985" lon="10.2020458"><ele>274.0</ele><time>2026-05-04T18:24:37.99Z</time></trkpt><trkpt lat="45.6548444" lon="10.202193"><ele>274.8</ele><time>2026-05-04T18:24:38.99Z</time></trkpt><trkpt lat="45.6548815" lon="10.2023452"><ele>275.59999999999997</ele><time>2026-05-04T18:24:39.99Z</time></trkpt><trkpt lat="45.6549201" lon="10.2025009"><ele>276.4</ele><time>2026-05-04T18:24:40.99Z</time></trkpt><trkpt lat="45.6550016" lon="10.2025969"><ele>277.2</ele><time>2026-05-04T18:24:41.99Z</time></trkpt><trkpt lat="45.6550475" lon="10.2027418"><ele>278.0</ele><time>2026-05-04T18:24:42.99Z</time></trkpt><trkpt lat="45.6551093" lon="10.2028884"><ele>278.0</ele><time>2026-05-04T18:24:43.99Z</time></trkpt><trkpt lat="45.6551606" lon="10.2030885"><ele>278.0</ele><time>2026-05-04T18:24:44.991Z</time></trkpt><trkpt lat="45.6552333" lon="10.2032622"><ele>278.0</ele><time>2026-05-04T18:24:45.99Z</time></trkpt><trkpt lat="45.6552853" lon="10.2034276"><ele>278.0</ele><time>2026-05-04T18:24:46.99Z</time></trkpt><trkpt lat="45.6553109" lon="10.2036047"><ele>284.0</ele><time>2026-05-04T18:24:47.99Z</time></trkpt><trkpt lat="45.6553016" lon="10.2037886"><ele>290.0</ele><time>2026-05-04T18:24:48.99Z</time></trkpt><trkpt lat="45.655332" lon="10.2039631"><ele>296.0</ele><time>2026-05-04T18:24:49.99Z</time></trkpt><trkpt lat="45.6553365" lon="10.2041444"><ele>302.0</ele><time>2026-05-04T18:24:50.99Z</time></trkpt><trkpt lat="45.6553778" lon="10.2043244"><ele>302.0</ele><time>2026-05-04T18:24:51.936Z</time></trkpt><trkpt lat="45.6554171" lon="10.2044923"><ele>302.0</ele><time>2026-05-04T18:24:52.99Z</time></trkpt><trkpt lat="45.655466" lon="10.2046385"><ele>302.0</ele><time>2026-05-04T18:24:53.99Z</time></trkpt><trkpt lat="45.6555239" lon="10.2047743"><ele>302.0</ele><time>2026-05-04T18:24:54.991Z</time></trkpt><trkpt lat="45.6555875" lon="10.2049325"><ele>300.5</ele><time>2026-05-04T18:24:55.99Z</time></trkpt><trkpt lat="45.6556557" lon="10.2050721"><ele>299.0</ele><time>2026-05-04T18:24:56.99Z</time></trkpt><trkpt lat="45.6557087" lon="10.2052081"><ele>297.5</ele><time>2026-05-04T18:24:57.99Z</time></trkpt><trkpt lat="45.655764" lon="10.2053475"><ele>296.0</ele><time>2026-05-04T18:24:58.99Z</time></trkpt><trkpt lat="45.6558318" lon="10.205489"><ele>296.0</ele><time>2026-05-04T18:24:59.99Z</time></trkpt><trkpt lat="45.6559003" lon="10.2056274"><ele>296.0</ele><time>2026-05-04T18:25:00.991Z</time></trkpt><trkpt lat="45.655966" lon="10.2057735"><ele>296.0</ele><time>2026-05-04T18:25:01.99Z</time></trkpt><trkpt lat="45.6560422" lon="10.2058966"><ele>296.0</ele><time>2026-05-04T18:25:02.99Z</time></trkpt><trkpt lat="45.6561323" lon="10.2060076"><ele>298.0</ele><time>2026-05-04T18:25:03.936Z</time></trkpt><trkpt lat="45.6562247" lon="10.2061004"><ele>300.0</ele><time>2026-05-04T18:25:04.94Z</time></trkpt><trkpt lat="45.6563347" lon="10.2061788"><ele>302.0</ele><time>2026-05-04T18:25:05.937Z</time></trkpt><trkpt lat="45.6564287" lon="10.2062761"><ele>304.0</ele><time>2026-05-04T18:25:06.99Z</time></trkpt><trkpt lat="45.6565218" lon="10.206357"><ele>304.0</ele><time>2026-05-04T18:25:07.99Z</time></trkpt><trkpt lat="45.6566138" lon="10.2064089"><ele>304.0</ele><time>2026-05-04T18:25:08.99Z</time></trkpt><trkpt lat="45.6567022" lon="10.2064803"><ele>304.0</ele><time>2026-05-04T18:25:09.99Z</time></trkpt><trkpt lat="45.6567887" lon="10.2065495"><ele>304.0</ele><time>2026-05-04T18:25:10.99Z</time></trkpt><trkpt lat="45.6568727" lon="10.2066184"><ele>304.0</ele><time>2026-05-04T18:25:11.991Z</time></trkpt><trkpt lat="45.6569589" lon="10.2066917"><ele>305.4</ele><time>2026-05-04T18:25:12.99Z</time></trkpt><trkpt lat="45.6570439" lon="10.2067628"><ele>306.79999999999995</ele><time>2026-05-04T18:25:13.99Z</time></trkpt><trkpt lat="45.6571162" lon="10.2068487"><ele>308.20000000000005</ele><time>2026-05-04T18:25:14.99Z</time></trkpt><trkpt lat="45.6571919" lon="10.2069294"><ele>309.6</ele><time>2026-05-04T18:25:15.99Z</time></trkpt><trkpt lat="45.6572626" lon="10.2070189"><ele>311.0</ele><time>2026-05-04T18:25:16.991Z</time></trkpt><trkpt lat="45.6573326" lon="10.2071055"><ele>311.0</ele><time>2026-05-04T18:25:17.99Z</time></trkpt><trkpt lat="45.6574134" lon="10.2071937"><ele>311.0</ele><time>2026-05-04T18:25:18.99Z</time></trkpt><trkpt lat="45.65748" lon="10.207288"><ele>311.0</ele><time>2026-05-04T18:25:19.99Z</time></trkpt><trkpt lat="45.6575514" lon="10.2073727"><ele>311.0</ele><time>2026-05-04T18:25:20.99Z</time></trkpt><trkpt lat="45.6576241" lon="10.207471"><ele>311.0</ele><time>2026-05-04T18:25:21.991Z</time></trkpt><trkpt lat="45.6576891" lon="10.2075816"><ele>311.6</ele><time>2026-05-04T18:25:22.99Z</time></trkpt><trkpt lat="45.6577488" lon="10.207701"><ele>312.20000000000005</ele><time>2026-05-04T18:25:23.99Z</time></trkpt><trkpt lat="45.6577977" lon="10.2078322"><ele>312.79999999999995</ele><time>2026-05-04T18:25:24.99Z</time></trkpt><trkpt lat="45.6578438" lon="10.2079666"><ele>313.4</ele><time>2026-05-04T18:25:25.99Z</time></trkpt><trkpt lat="45.6578888" lon="10.2081073"><ele>314.0</ele><time>2026-05-04T18:25:26.99Z</time></trkpt><trkpt lat="45.6579356" lon="10.2082482"><ele>314.0</ele><time>2026-05-04T18:25:27.99Z</time></trkpt><trkpt lat="45.6579894" lon="10.2083887"><ele>314.0</ele><time>2026-05-04T18:25:28.99Z</time></trkpt><trkpt lat="45.6580456" lon="10.2085207"><ele>314.0</ele><time>2026-05-04T18:25:29.991Z</time></trkpt><trkpt lat="45.6581085" lon="10.2086515"><ele>314.0</ele><time>2026-05-04T18:25:30.99Z</time></trkpt><trkpt lat="45.6581771" lon="10.2087723"><ele>314.0</ele><time>2026-05-04T18:25:31.99Z</time></trkpt><trkpt lat="45.6582536" lon="10.2088854"><ele>313.25</ele><time>2026-05-04T18:25:32.99Z</time></trkpt><trkpt lat="45.6583326" lon="10.2089966"><ele>312.5</ele><time>2026-05-04T18:25:33.937Z</time></trkpt><trkpt lat="45.6584173" lon="10.2091137"><ele>311.75</ele><time>2026-05-04T18:25:34.99Z</time></trkpt><trkpt lat="45.6584801" lon="10.2092206"><ele>311.0</ele><time>2026-05-04T18:25:35.99Z</time></trkpt><trkpt lat="45.6586035" lon="10.2093107"><ele>314.5</ele><time>2026-05-04T18:25:36.99Z</time></trkpt><trkpt lat="45.6587078" lon="10.2094189"><ele>318.0</ele><time>2026-05-04T18:25:37.929Z</time></trkpt><trkpt lat="45.6588061" lon="10.2095253"><ele>321.5</ele><time>2026-05-04T18:25:38.932Z</time></trkpt><trkpt lat="45.6589121" lon="10.2096257"><ele>325.0</ele><time>2026-05-04T18:25:39.99Z</time></trkpt><trkpt lat="45.6590175" lon="10.2097263"><ele>322.5</ele><time>2026-05-04T18:25:40.99Z</time></trkpt><trkpt lat="45.6591108" lon="10.2098474"><ele>320.0</ele><time>2026-05-04T18:25:41.99Z</time></trkpt><trkpt lat="45.6592152" lon="10.2099656"><ele>317.5</ele><time>2026-05-04T18:25:42.99Z</time></trkpt><trkpt lat="45.6593175" lon="10.2100777"><ele>315.0</ele><time>2026-05-04T18:25:43.927Z</time></trkpt><trkpt lat="45.6593667" lon="10.2102279"><ele>318.6666666666667</ele><time>2026-05-04T18:25:44.99Z</time></trkpt><trkpt lat="45.6594519" lon="10.2103599"><ele>322.33333333333337</ele><time>2026-05-04T18:25:45.99Z</time></trkpt><trkpt lat="45.6595328" lon="10.2104969"><ele>326.0</ele><time>2026-05-04T18:25:46.99Z</time></trkpt><trkpt lat="45.6601227" lon="10.2117857"><ele>326.0</ele><time>2026-05-04T18:25:54.894Z</time></trkpt><trkpt lat="45.6601806" lon="10.2120897"><ele>326.0</ele><time>2026-05-04T18:25:55.894Z</time></trkpt><trkpt lat="45.6602614" lon="10.212256"><ele>326.0</ele><time>2026-05-04T18:25:56.894Z</time></trkpt><trkpt lat="45.6603194" lon="10.2124226"><ele>327.75</ele><time>2026-05-04T18:25:57.9Z</time></trkpt><trkpt lat="45.660384" lon="10.2125968"><ele>329.5</ele><time>2026-05-04T18:25:58.896Z</time></trkpt><trkpt lat="45.6604248" lon="10.2127695"><ele>331.25</ele><time>2026-05-04T18:25:59.9Z</time></trkpt><trkpt lat="45.6604546" lon="10.2129397"><ele>333.0</ele><time>2026-05-04T18:26:00.9Z</time></trkpt><trkpt lat="45.6604982" lon="10.2130902"><ele>332.59999999999997</ele><time>2026-05-04T18:26:01.9Z</time></trkpt><trkpt lat="45.660538" lon="10.2132385"><ele>332.2</ele><time>2026-05-04T18:26:02.9Z</time></trkpt><trkpt lat="45.6605708" lon="10.2133819"><ele>331.8</ele><time>2026-05-04T18:26:03.9Z</time></trkpt><trkpt lat="45.6606122" lon="10.213508"><ele>331.4</ele><time>2026-05-04T18:26:04.9Z</time></trkpt><trkpt lat="45.6606842" lon="10.213629"><ele>331.0</ele><time>2026-05-04T18:26:05.9Z</time></trkpt><trkpt lat="45.6607521" lon="10.2137385"><ele>331.0</ele><time>2026-05-04T18:26:06.9Z</time></trkpt><trkpt lat="45.660816" lon="10.2138552"><ele>331.0</ele><time>2026-05-04T18:26:07.9Z</time></trkpt><trkpt lat="45.6608695" lon="10.2139539"><ele>331.0</ele><time>2026-05-04T18:26:08.9Z</time></trkpt><trkpt lat="45.6609223" lon="10.2140502"><ele>331.0</ele><time>2026-05-04T18:26:09.9Z</time></trkpt><trkpt lat="45.6609885" lon="10.2141834"><ele>331.0</ele><time>2026-05-04T18:26:10.9Z</time></trkpt><trkpt lat="45.6610421" lon="10.214291"><ele>331.20000000000005</ele><time>2026-05-04T18:26:11.901Z</time></trkpt><trkpt lat="45.661094" lon="10.2143916"><ele>331.40000000000003</ele><time>2026-05-04T18:26:12.9Z</time></trkpt><trkpt lat="45.661148" lon="10.2145105"><ele>331.6</ele><time>2026-05-04T18:26:13.9Z</time></trkpt><trkpt lat="45.6612127" lon="10.2146066"><ele>331.8</ele><time>2026-05-04T18:26:14.9Z</time></trkpt><trkpt lat="45.6612736" lon="10.2147116"><ele>332.0</ele><time>2026-05-04T18:26:15.9Z</time></trkpt><trkpt lat="45.6613281" lon="10.2148178"><ele>334.5</ele><time>2026-05-04T18:26:16.9Z</time></trkpt><trkpt lat="45.6613819" lon="10.2149285"><ele>337.0</ele><time>2026-05-04T18:26:17.901Z</time></trkpt><trkpt lat="45.6614447" lon="10.2150229"><ele>339.5</ele><time>2026-05-04T18:26:18.9Z</time></trkpt><trkpt lat="45.661496" lon="10.2151268"><ele>342.0</ele><time>2026-05-04T18:26:19.9Z</time></trkpt><trkpt lat="45.6615568" lon="10.2152216"><ele>344.5</ele><time>2026-05-04T18:26:20.9Z</time></trkpt><trkpt lat="45.661608" lon="10.2153132"><ele>347.0</ele><time>2026-05-04T18:26:21.9Z</time></trkpt><trkpt lat="45.6616617" lon="10.2153912"><ele>347.0</ele><time>2026-05-04T18:26:22.9Z</time></trkpt><trkpt lat="45.6617227" lon="10.2154802"><ele>347.0</ele><time>2026-05-04T18:26:23.9Z</time></trkpt><trkpt lat="45.6617827" lon="10.2155749"><ele>347.0</ele><time>2026-05-04T18:26:24.9Z</time></trkpt><trkpt lat="45.6618469" lon="10.2156701"><ele>347.0</ele><time>2026-05-04T18:26:25.9Z</time></trkpt><trkpt lat="45.6619105" lon="10.2157794"><ele>347.0</ele><time>2026-05-04T18:26:26.9Z</time></trkpt><trkpt lat="45.661964" lon="10.215893"><ele>348.20000000000005</ele><time>2026-05-04T18:26:27.9Z</time></trkpt><trkpt lat="45.6620095" lon="10.2160151"><ele>349.4</ele><time>2026-05-04T18:26:28.9Z</time></trkpt><trkpt lat="45.6620428" lon="10.2161436"><ele>350.6</ele><time>2026-05-04T18:26:29.9Z</time></trkpt><trkpt lat="45.6620935" lon="10.21627"><ele>351.79999999999995</ele><time>2026-05-04T18:26:30.901Z</time></trkpt><trkpt lat="45.6621189" lon="10.2164046"><ele>353.0</ele><time>2026-05-04T18:26:31.9Z</time></trkpt><trkpt lat="45.662161" lon="10.2165318"><ele>353.0</ele><time>2026-05-04T18:26:32.9Z</time></trkpt><trkpt lat="45.6622171" lon="10.2166504"><ele>353.0</ele><time>2026-05-04T18:26:33.9Z</time></trkpt><trkpt lat="45.6622583" lon="10.2167434"><ele>353.0</ele><time>2026-05-04T18:26:34.9Z</time></trkpt><trkpt lat="45.6623169" lon="10.2168309"><ele>353.0</ele><time>2026-05-04T18:26:35.9Z</time></trkpt><trkpt lat="45.6623894" lon="10.2169002"><ele>353.0</ele><time>2026-05-04T18:26:36.9Z</time></trkpt><trkpt lat="45.6624648" lon="10.2169716"><ele>353.0</ele><time>2026-05-04T18:26:37.9Z</time></trkpt><trkpt lat="45.6625485" lon="10.2170197"><ele>353.0</ele><time>2026-05-04T18:26:38.9Z</time></trkpt><trkpt lat="45.6626513" lon="10.2170655"><ele>353.0</ele><time>2026-05-04T18:26:39.9Z</time></trkpt><trkpt lat="45.6627457" lon="10.2171165"><ele>353.0</ele><time>2026-05-04T18:26:40.9Z</time></trkpt><trkpt lat="45.662828" lon="10.2171836"><ele>353.0</ele><time>2026-05-04T18:26:41.901Z</time></trkpt><trkpt lat="45.6629128" lon="10.2172599"><ele>353.0</ele><time>2026-05-04T18:26:42.9Z</time></trkpt><trkpt lat="45.6629975" lon="10.2173292"><ele>355.59999999999997</ele><time>2026-05-04T18:26:43.9Z</time></trkpt><trkpt lat="45.6630789" lon="10.2174141"><ele>358.2</ele><time>2026-05-04T18:26:44.9Z</time></trkpt><trkpt lat="45.6631529" lon="10.2175125"><ele>360.8</ele><time>2026-05-04T18:26:45.9Z</time></trkpt><trkpt lat="45.6632348" lon="10.2175969"><ele>363.4</ele><time>2026-05-04T18:26:46.9Z</time></trkpt><trkpt lat="45.6633194" lon="10.2176823"><ele>366.0</ele><time>2026-05-04T18:26:47.901Z</time></trkpt><trkpt lat="45.6633969" lon="10.2177783"><ele>366.0</ele><time>2026-05-04T18:26:48.9Z</time></trkpt><trkpt lat="45.6634825" lon="10.2178579"><ele>366.0</ele><time>2026-05-04T18:26:49.901Z</time></trkpt><trkpt lat="45.6635605" lon="10.2179342"><ele>366.0</ele><time>2026-05-04T18:26:50.9Z</time></trkpt><trkpt lat="45.6636312" lon="10.2180254"><ele>366.0</ele><time>2026-05-04T18:26:51.9Z</time></trkpt><trkpt lat="45.663699" lon="10.2180994"><ele>366.0</ele><time>2026-05-04T18:26:52.9Z</time></trkpt><trkpt lat="45.6637688" lon="10.2181843"><ele>367.8</ele><time>2026-05-04T18:26:53.9Z</time></trkpt><trkpt lat="45.6638394" lon="10.2182703"><ele>369.6</ele><time>2026-05-04T18:26:54.9Z</time></trkpt><trkpt lat="45.6639476" lon="10.2183367"><ele>371.4</ele><time>2026-05-04T18:26:55.9Z</time></trkpt><trkpt lat="45.6640247" lon="10.2184169"><ele>373.2</ele><time>2026-05-04T18:26:56.9Z</time></trkpt><trkpt lat="45.6641147" lon="10.2184365"><ele>375.0</ele><time>2026-05-04T18:26:57.9Z</time></trkpt><trkpt lat="45.6641964" lon="10.2185011"><ele>375.0</ele><time>2026-05-04T18:26:58.9Z</time></trkpt><trkpt lat="45.6642775" lon="10.2185994"><ele>375.0</ele><time>2026-05-04T18:26:59.9Z</time></trkpt><trkpt lat="45.6643451" lon="10.2186946"><ele>375.0</ele><time>2026-05-04T18:27:00.901Z</time></trkpt><trkpt lat="45.6644243" lon="10.2187625"><ele>375.0</ele><time>2026-05-04T18:27:01.9Z</time></trkpt><trkpt lat="45.6645183" lon="10.2188289"><ele>375.0</ele><time>2026-05-04T18:27:02.9Z</time></trkpt><trkpt lat="45.6645909" lon="10.2189094"><ele>376.6</ele><time>2026-05-04T18:27:03.9Z</time></trkpt><trkpt lat="45.6646626" lon="10.2190056"><ele>378.2</ele><time>2026-05-04T18:27:04.9Z</time></trkpt><trkpt lat="45.6647246" lon="10.2191262"><ele>379.79999999999995</ele><time>2026-05-04T18:27:05.9Z</time></trkpt><trkpt lat="45.6647716" lon="10.2192533"><ele>381.4</ele><time>2026-05-04T18:27:06.9Z</time></trkpt><trkpt lat="45.6648154" lon="10.219393"><ele>383.0</ele><time>2026-05-04T18:27:07.9Z</time></trkpt><trkpt lat="45.6648629" lon="10.2195344"><ele>383.0</ele><time>2026-05-04T18:27:08.9Z</time></trkpt><trkpt lat="45.6648792" lon="10.2196665"><ele>383.0</ele><time>2026-05-04T18:27:09.9Z</time></trkpt><trkpt lat="45.6648524" lon="10.2197884"><ele>383.0</ele><time>2026-05-04T18:27:10.9Z</time></trkpt><trkpt lat="45.6647996" lon="10.219894"><ele>383.0</ele><time>2026-05-04T18:27:11.9Z</time></trkpt><trkpt lat="45.6647449" lon="10.2199785"><ele>383.0</ele><time>2026-05-04T18:27:12.9Z</time></trkpt><trkpt lat="45.664663" lon="10.2200697"><ele>383.0</ele><time>2026-05-04T18:27:13.9Z</time></trkpt><trkpt lat="45.6645835" lon="10.2201414"><ele>383.0</ele><time>2026-05-04T18:27:14.901Z</time></trkpt><trkpt lat="45.6644993" lon="10.220239"><ele>383.0</ele><time>2026-05-04T18:27:15.9Z</time></trkpt><trkpt lat="45.6643784" lon="10.2202837"><ele>383.0</ele><time>2026-05-04T18:27:16.9Z</time></trkpt><trkpt lat="45.6642516" lon="10.2203246"><ele>382.2</ele><time>2026-05-04T18:27:17.9Z</time></trkpt><trkpt lat="45.6641427" lon="10.2203739"><ele>381.4</ele><time>2026-05-04T18:27:18.9Z</time></trkpt><trkpt lat="45.6640489" lon="10.22042"><ele>380.59999999999997</ele><time>2026-05-04T18:27:19.9Z</time></trkpt><trkpt lat="45.66397" lon="10.2204767"><ele>379.79999999999995</ele><time>2026-05-04T18:27:20.9Z</time></trkpt><trkpt lat="45.6638893" lon="10.2205304"><ele>379.0</ele><time>2026-05-04T18:27:21.9Z</time></trkpt><trkpt lat="45.6638179" lon="10.2205973"><ele>380.16666666666663</ele><time>2026-05-04T18:27:22.9Z</time></trkpt><trkpt lat="45.6637558" lon="10.2206603"><ele>381.3333333333333</ele><time>2026-05-04T18:27:23.9Z</time></trkpt><trkpt lat="45.6636762" lon="10.2207264"><ele>382.5</ele><time>2026-05-04T18:27:24.9Z</time></trkpt><trkpt lat="45.6636054" lon="10.2207933"><ele>383.66666666666663</ele><time>2026-05-04T18:27:25.9Z</time></trkpt><trkpt lat="45.6635366" lon="10.2208655"><ele>384.8333333333333</ele><time>2026-05-04T18:27:26.9Z</time></trkpt><trkpt lat="45.6634703" lon="10.2209196"><ele>386.0</ele><time>2026-05-04T18:27:27.9Z</time></trkpt><trkpt lat="45.6634138" lon="10.2209657"><ele>385.99999999999994</ele><time>2026-05-04T18:27:28.9Z</time></trkpt><trkpt lat="45.6633549" lon="10.2210162"><ele>386.0</ele><time>2026-05-04T18:27:29.9Z</time></trkpt><trkpt lat="45.6632763" lon="10.2210708"><ele>386.0</ele><time>2026-05-04T18:27:30.901Z</time></trkpt><trkpt lat="45.6632042" lon="10.2211172"><ele>386.0</ele><time>2026-05-04T18:27:31.901Z</time></trkpt><trkpt lat="45.6631362" lon="10.2211735"><ele>385.99999999999994</ele><time>2026-05-04T18:27:32.9Z</time></trkpt><trkpt lat="45.6630548" lon="10.2211946"><ele>386.0</ele><time>2026-05-04T18:27:33.9Z</time></trkpt><trkpt lat="45.6629563" lon="10.2212443"><ele>386.0</ele><time>2026-05-04T18:27:34.9Z</time></trkpt><trkpt lat="45.6628658" lon="10.2212604"><ele>386.0</ele><time>2026-05-04T18:27:35.9Z</time></trkpt><trkpt lat="45.6627817" lon="10.2212581"><ele>386.0</ele><time>2026-05-04T18:27:36.9Z</time></trkpt><trkpt lat="45.6626938" lon="10.2212664"><ele>386.0</ele><time>2026-05-04T18:27:37.9Z</time></trkpt><trkpt lat="45.662603" lon="10.2212897"><ele>386.0</ele><time>2026-05-04T18:27:38.901Z</time></trkpt><trkpt lat="45.6625058" lon="10.2213003"><ele>386.4</ele><time>2026-05-04T18:27:39.9Z</time></trkpt><trkpt lat="45.6624157" lon="10.2213198"><ele>386.8</ele><time>2026-05-04T18:27:40.9Z</time></trkpt><trkpt lat="45.6623383" lon="10.2213317"><ele>387.2</ele><time>2026-05-04T18:27:41.9Z</time></trkpt><trkpt lat="45.6622693" lon="10.2214776"><ele>387.59999999999997</ele><time>2026-05-04T18:27:42.9Z</time></trkpt><trkpt lat="45.6622013" lon="10.2215673"><ele>388.0</ele><time>2026-05-04T18:27:43.9Z</time></trkpt><trkpt lat="45.6621453" lon="10.2216601"><ele>390.59999999999997</ele><time>2026-05-04T18:27:44.9Z</time></trkpt><trkpt lat="45.662104" lon="10.2217794"><ele>393.2</ele><time>2026-05-04T18:27:45.9Z</time></trkpt><trkpt lat="45.6620629" lon="10.2218669"><ele>395.8</ele><time>2026-05-04T18:27:46.9Z</time></trkpt><trkpt lat="45.6620152" lon="10.221978"><ele>398.4</ele><time>2026-05-04T18:27:47.9Z</time></trkpt><trkpt lat="45.6619331" lon="10.2221382"><ele>401.0</ele><time>2026-05-04T18:27:49.9Z</time></trkpt><trkpt lat="45.661874" lon="10.2222168"><ele>402.6</ele><time>2026-05-04T18:27:50.9Z</time></trkpt><trkpt lat="45.6618015" lon="10.2223101"><ele>404.20000000000005</ele><time>2026-05-04T18:27:51.9Z</time></trkpt><trkpt lat="45.6617321" lon="10.2224051"><ele>405.79999999999995</ele><time>2026-05-04T18:27:52.9Z</time></trkpt><trkpt lat="45.6616468" lon="10.2225095"><ele>407.4</ele><time>2026-05-04T18:27:53.9Z</time></trkpt><trkpt lat="45.6615741" lon="10.2225833"><ele>409.0</ele><time>2026-05-04T18:27:54.9Z</time></trkpt><trkpt lat="45.6615072" lon="10.2226434"><ele>409.33333333333337</ele><time>2026-05-04T18:27:55.9Z</time></trkpt><trkpt lat="45.6614385" lon="10.2227237"><ele>409.6666666666667</ele><time>2026-05-04T18:27:56.9Z</time></trkpt><trkpt lat="45.6613819" lon="10.2227943"><ele>410.0</ele><time>2026-05-04T18:27:57.9Z</time></trkpt><trkpt lat="45.6613244" lon="10.2228532"><ele>410.33333333333337</ele><time>2026-05-04T18:27:58.9Z</time></trkpt><trkpt lat="45.6612681" lon="10.2229159"><ele>410.6666666666667</ele><time>2026-05-04T18:27:59.9Z</time></trkpt><trkpt lat="45.661173" lon="10.2230198"><ele>411.0</ele><time>2026-05-04T18:28:01.901Z</time></trkpt><trkpt lat="45.6611138" lon="10.2230925"><ele>411.3333333333333</ele><time>2026-05-04T18:28:02.9Z</time></trkpt><trkpt lat="45.661049" lon="10.2231464"><ele>411.66666666666663</ele><time>2026-05-04T18:28:03.9Z</time></trkpt><trkpt lat="45.6609904" lon="10.2231964"><ele>412.0</ele><time>2026-05-04T18:28:04.9Z</time></trkpt><trkpt lat="45.6609181" lon="10.2232372"><ele>412.3333333333333</ele><time>2026-05-04T18:28:05.9Z</time></trkpt><trkpt lat="45.6608424" lon="10.2232973"><ele>412.66666666666663</ele><time>2026-05-04T18:28:06.9Z</time></trkpt><trkpt lat="45.6607744" lon="10.223378"><ele>413.0</ele><time>2026-05-04T18:28:07.901Z</time></trkpt><trkpt lat="45.6607243" lon="10.2234713"><ele>413.0</ele><time>2026-05-04T18:28:08.9Z</time></trkpt><trkpt lat="45.6606781" lon="10.2235793"><ele>413.0</ele><time>2026-05-04T18:28:09.9Z</time></trkpt><trkpt lat="45.6606371" lon="10.2237032"><ele>413.0</ele><time>2026-05-04T18:28:10.9Z</time></trkpt><trkpt lat="45.6605959" lon="10.2238319"><ele>413.0</ele><time>2026-05-04T18:28:11.9Z</time></trkpt><trkpt lat="45.6605598" lon="10.2240134"><ele>413.0</ele><time>2026-05-04T18:28:13.898Z</time></trkpt><trkpt lat="45.6605032" lon="10.2240761"><ele>413.0</ele><time>2026-05-04T18:28:14.898Z</time></trkpt><trkpt lat="45.66046" lon="10.2241479"><ele>413.0</ele><time>2026-05-04T18:28:15.99Z</time></trkpt><trkpt lat="45.660403" lon="10.2242141"><ele>413.0</ele><time>2026-05-04T18:28:16.991Z</time></trkpt><trkpt lat="45.6603414" lon="10.2242652"><ele>413.0</ele><time>2026-05-04T18:28:17.915Z</time></trkpt><trkpt lat="45.6602786" lon="10.2243288"><ele>413.0</ele><time>2026-05-04T18:28:18.974Z</time></trkpt><trkpt lat="45.6602091" lon="10.2243739"><ele>413.0</ele><time>2026-05-04T18:28:19.974Z</time></trkpt><trkpt lat="45.6601255" lon="10.2243968"><ele>413.0</ele><time>2026-05-04T18:28:20.975Z</time></trkpt><trkpt lat="45.6600322" lon="10.224409"><ele>410.25</ele><time>2026-05-04T18:28:21.974Z</time></trkpt><trkpt lat="45.6598965" lon="10.2243974"><ele>407.5</ele><time>2026-05-04T18:28:23.974Z</time></trkpt><trkpt lat="45.6597875" lon="10.2243896"><ele>404.75</ele><time>2026-05-04T18:28:24.974Z</time></trkpt><trkpt lat="45.6596545" lon="10.2243533"><ele>402.0</ele><time>2026-05-04T18:28:25.974Z</time></trkpt><trkpt lat="45.6595327" lon="10.2243753"><ele>402.0</ele><time>2026-05-04T18:28:26.932Z</time></trkpt><trkpt lat="45.6594506" lon="10.2243814"><ele>402.0</ele><time>2026-05-04T18:28:27.974Z</time></trkpt><trkpt lat="45.6593394" lon="10.224413"><ele>402.0</ele><time>2026-05-04T18:28:28.946Z</time></trkpt><trkpt lat="45.6592687" lon="10.2245326"><ele>402.0</ele><time>2026-05-04T18:28:29.974Z</time></trkpt><trkpt lat="45.6591647" lon="10.2246179"><ele>402.0</ele><time>2026-05-04T18:28:30.974Z</time></trkpt><trkpt lat="45.659072" lon="10.2246867"><ele>399.75</ele><time>2026-05-04T18:28:31.974Z</time></trkpt><trkpt lat="45.6589852" lon="10.2248644"><ele>397.5</ele><time>2026-05-04T18:28:32.974Z</time></trkpt><trkpt lat="45.6589174" lon="10.2249958"><ele>395.25</ele><time>2026-05-04T18:28:33.974Z</time></trkpt><trkpt lat="45.6588331" lon="10.2251294"><ele>393.0</ele><time>2026-05-04T18:28:34.974Z</time></trkpt><trkpt lat="45.6587618" lon="10.2252688"><ele>393.0</ele><time>2026-05-04T18:28:35.974Z</time></trkpt><trkpt lat="45.6587059" lon="10.2254137"><ele>393.0</ele><time>2026-05-04T18:28:36.974Z</time></trkpt><trkpt lat="45.6586469" lon="10.2255577"><ele>393.0</ele><time>2026-05-04T18:28:37.974Z</time></trkpt><trkpt lat="45.658587" lon="10.2256964"><ele>393.0</ele><time>2026-05-04T18:28:38.974Z</time></trkpt><trkpt lat="45.6585349" lon="10.2258361"><ele>391.25</ele><time>2026-05-04T18:28:39.975Z</time></trkpt><trkpt lat="45.6584796" lon="10.225973"><ele>389.5</ele><time>2026-05-04T18:28:40.975Z</time></trkpt><trkpt lat="45.6584276" lon="10.2261154"><ele>387.75</ele><time>2026-05-04T18:28:41.974Z</time></trkpt><trkpt lat="45.6583762" lon="10.2262691"><ele>386.0</ele><time>2026-05-04T18:28:42.974Z</time></trkpt><trkpt lat="45.6583281" lon="10.2264187"><ele>387.0</ele><time>2026-05-04T18:28:43.974Z</time></trkpt><trkpt lat="45.6582809" lon="10.2265579"><ele>388.0</ele><time>2026-05-04T18:28:44.974Z</time></trkpt><trkpt lat="45.6582597" lon="10.2267064"><ele>389.0</ele><time>2026-05-04T18:28:45.974Z</time></trkpt><trkpt lat="45.6582535" lon="10.2268661"><ele>390.0</ele><time>2026-05-04T18:28:46.974Z</time></trkpt><trkpt lat="45.6582668" lon="10.227027"><ele>391.0</ele><time>2026-05-04T18:28:47.974Z</time></trkpt><trkpt lat="45.6582929" lon="10.2271803"><ele>389.8</ele><time>2026-05-04T18:28:48.974Z</time></trkpt><trkpt lat="45.6583176" lon="10.2273314"><ele>388.6</ele><time>2026-05-04T18:28:49.974Z</time></trkpt><trkpt lat="45.658366" lon="10.2274776"><ele>387.4</ele><time>2026-05-04T18:28:50.974Z</time></trkpt><trkpt lat="45.658406" lon="10.2276231"><ele>386.2</ele><time>2026-05-04T18:28:51.974Z</time></trkpt><trkpt lat="45.6584341" lon="10.227771"><ele>385.0</ele><time>2026-05-04T18:28:52.975Z</time></trkpt><trkpt lat="45.6584354" lon="10.2279221"><ele>385.0</ele><time>2026-05-04T18:28:53.974Z</time></trkpt><trkpt lat="45.6584249" lon="10.2280629"><ele>385.0</ele><time>2026-05-04T18:28:54.974Z</time></trkpt><trkpt lat="45.6584141" lon="10.2282068"><ele>385.0</ele><time>2026-05-04T18:28:55.974Z</time></trkpt><trkpt lat="45.6583203" lon="10.2282998"><ele>385.0</ele><time>2026-05-04T18:28:56.975Z</time></trkpt><trkpt lat="45.6582478" lon="10.2283757"><ele>385.0</ele><time>2026-05-04T18:28:57.974Z</time></trkpt><trkpt lat="45.6581613" lon="10.2284816"><ele>386.25</ele><time>2026-05-04T18:28:58.974Z</time></trkpt><trkpt lat="45.6580887" lon="10.2285904"><ele>387.5</ele><time>2026-05-04T18:28:59.975Z</time></trkpt><trkpt lat="45.6580018" lon="10.2287137"><ele>388.75</ele><time>2026-05-04T18:29:00.974Z</time></trkpt><trkpt lat="45.6579183" lon="10.2288453"><ele>390.0</ele><time>2026-05-04T18:29:01.974Z</time></trkpt><trkpt lat="45.6578185" lon="10.2289493"><ele>392.0</ele><time>2026-05-04T18:29:02.974Z</time></trkpt><trkpt lat="45.6577007" lon="10.2290184"><ele>394.0</ele><time>2026-05-04T18:29:03.974Z</time></trkpt><trkpt lat="45.6575851" lon="10.2291101"><ele>396.0</ele><time>2026-05-04T18:29:04.974Z</time></trkpt><trkpt lat="45.6574605" lon="10.2290294"><ele>398.0</ele><time>2026-05-04T18:29:05.974Z</time></trkpt><trkpt lat="45.6573391" lon="10.2289941"><ele>396.79999999999995</ele><time>2026-05-04T18:29:06.975Z</time></trkpt><trkpt lat="45.6572546" lon="10.228937"><ele>395.6</ele><time>2026-05-04T18:29:07.974Z</time></trkpt><trkpt lat="45.6571449" lon="10.228858"><ele>394.4</ele><time>2026-05-04T18:29:08.943Z</time></trkpt><trkpt lat="45.657051" lon="10.2288395"><ele>393.20000000000005</ele><time>2026-05-04T18:29:09.94Z</time></trkpt><trkpt lat="45.656954" lon="10.2288547"><ele>392.0</ele><time>2026-05-04T18:29:10.939Z</time></trkpt><trkpt lat="45.6568795" lon="10.2288867"><ele>393.6</ele><time>2026-05-04T18:29:11.974Z</time></trkpt><trkpt lat="45.6568296" lon="10.2289777"><ele>395.20000000000005</ele><time>2026-05-04T18:29:12.974Z</time></trkpt><trkpt lat="45.656796" lon="10.2291009"><ele>396.8</ele><time>2026-05-04T18:29:13.946Z</time></trkpt><trkpt lat="45.6567455" lon="10.2292183"><ele>398.4</ele><time>2026-05-04T18:29:14.974Z</time></trkpt><trkpt lat="45.6567651" lon="10.2293318"><ele>400.0</ele><time>2026-05-04T18:29:15.974Z</time></trkpt><trkpt lat="45.6567985" lon="10.2294711"><ele>400.0</ele><time>2026-05-04T18:29:16.974Z</time></trkpt><trkpt lat="45.6567991" lon="10.2296104"><ele>400.0</ele><time>2026-05-04T18:29:17.974Z</time></trkpt><trkpt lat="45.6567906" lon="10.2297604"><ele>400.0</ele><time>2026-05-04T18:29:18.975Z</time></trkpt><trkpt lat="45.6567963" lon="10.2298902"><ele>400.0</ele><time>2026-05-04T18:29:19.934Z</time></trkpt><trkpt lat="45.656817" lon="10.2300126"><ele>400.0</ele><time>2026-05-04T18:29:20.974Z</time></trkpt><trkpt lat="45.6568475" lon="10.2301087"><ele>400.33333333333337</ele><time>2026-05-04T18:29:21.94Z</time></trkpt><trkpt lat="45.6568712" lon="10.2302062"><ele>400.6666666666667</ele><time>2026-05-04T18:29:22.974Z</time></trkpt><trkpt lat="45.6569488" lon="10.2303276"><ele>401.0</ele><time>2026-05-04T18:29:24.937Z</time></trkpt><trkpt lat="45.6570319" lon="10.2302898"><ele>401.33333333333337</ele><time>2026-05-04T18:29:25.942Z</time></trkpt><trkpt lat="45.6571056" lon="10.2302562"><ele>401.6666666666667</ele><time>2026-05-04T18:29:26.974Z</time></trkpt><trkpt lat="45.6571711" lon="10.2302168"><ele>402.0</ele><time>2026-05-04T18:29:27.974Z</time></trkpt><trkpt lat="45.6572495" lon="10.2301615"><ele>403.40000000000003</ele><time>2026-05-04T18:29:28.934Z</time></trkpt><trkpt lat="45.6573608" lon="10.2300444"><ele>404.8</ele><time>2026-05-04T18:29:30.974Z</time></trkpt><trkpt lat="45.657426" lon="10.2300491"><ele>406.2</ele><time>2026-05-04T18:29:31.974Z</time></trkpt><trkpt lat="45.6575012" lon="10.2300504"><ele>407.6</ele><time>2026-05-04T18:29:32.974Z</time></trkpt><trkpt lat="45.6576263" lon="10.2300936"><ele>409.0</ele><time>2026-05-04T18:29:34.975Z</time></trkpt><trkpt lat="45.6577057" lon="10.2301321"><ele>409.33333333333337</ele><time>2026-05-04T18:29:35.974Z</time></trkpt><trkpt lat="45.6577947" lon="10.2301641"><ele>409.6666666666667</ele><time>2026-05-04T18:29:36.974Z</time></trkpt><trkpt lat="45.6578804" lon="10.2301925"><ele>410.0</ele><time>2026-05-04T18:29:37.974Z</time></trkpt><trkpt lat="45.6579564" lon="10.2302067"><ele>410.33333333333337</ele><time>2026-05-04T18:29:38.974Z</time></trkpt><trkpt lat="45.6580402" lon="10.230213"><ele>410.6666666666667</ele><time>2026-05-04T18:29:39.937Z</time></trkpt><trkpt lat="45.6581083" lon="10.2302485"><ele>411.0</ele><time>2026-05-04T18:29:40.974Z</time></trkpt><trkpt lat="45.6582135" lon="10.2303249"><ele>411.0</ele><time>2026-05-04T18:29:42.974Z</time></trkpt><trkpt lat="45.658348" lon="10.2304246"><ele>411.0</ele><time>2026-05-04T18:29:44.974Z</time></trkpt><trkpt lat="45.6584253" lon="10.2304604"><ele>411.0</ele><time>2026-05-04T18:29:45.974Z</time></trkpt><trkpt lat="45.6585101" lon="10.2304805"><ele>411.0</ele><time>2026-05-04T18:29:46.974Z</time></trkpt><trkpt lat="45.6586024" lon="10.2305161"><ele>411.0</ele><time>2026-05-04T18:29:47.974Z</time></trkpt><trkpt lat="45.6586772" lon="10.230578"><ele>413.6</ele><time>2026-05-04T18:29:48.974Z</time></trkpt><trkpt lat="45.6587562" lon="10.2306505"><ele>416.20000000000005</ele><time>2026-05-04T18:29:49.938Z</time></trkpt><trkpt lat="45.6588194" lon="10.2307586"><ele>418.79999999999995</ele><time>2026-05-04T18:29:50.974Z</time></trkpt><trkpt lat="45.658852" lon="10.2308763"><ele>421.4</ele><time>2026-05-04T18:29:51.974Z</time></trkpt><trkpt lat="45.6588991" lon="10.2310029"><ele>424.0</ele><time>2026-05-04T18:29:52.974Z</time></trkpt><trkpt lat="45.658924" lon="10.231137"><ele>424.0</ele><time>2026-05-04T18:29:53.974Z</time></trkpt><trkpt lat="45.6588966" lon="10.2312527"><ele>424.0</ele><time>2026-05-04T18:29:54.974Z</time></trkpt><trkpt lat="45.6589052" lon="10.2313796"><ele>424.0</ele><time>2026-05-04T18:29:55.974Z</time></trkpt><trkpt lat="45.658903" lon="10.2315215"><ele>424.0</ele><time>2026-05-04T18:29:56.974Z</time></trkpt><trkpt lat="45.6589021" lon="10.2316563"><ele>424.0</ele><time>2026-05-04T18:29:57.974Z</time></trkpt><trkpt lat="45.6589042" lon="10.2317946"><ele>424.79999999999995</ele><time>2026-05-04T18:29:58.974Z</time></trkpt><trkpt lat="45.6588948" lon="10.2319404"><ele>425.59999999999997</ele><time>2026-05-04T18:29:59.974Z</time></trkpt><trkpt lat="45.6588959" lon="10.2320762"><ele>426.4</ele><time>2026-05-04T18:30:00.974Z</time></trkpt><trkpt lat="45.6588908" lon="10.2322238"><ele>427.2</ele><time>2026-05-04T18:30:01.974Z</time></trkpt><trkpt lat="45.6588806" lon="10.2323661"><ele>428.0</ele><time>2026-05-04T18:30:02.974Z</time></trkpt><trkpt lat="45.6588575" lon="10.2325583"><ele>429.0</ele><time>2026-05-04T18:30:03.974Z</time></trkpt><trkpt lat="45.6588171" lon="10.2327166"><ele>429.99999999999994</ele><time>2026-05-04T18:30:04.974Z</time></trkpt><trkpt lat="45.6587495" lon="10.232852"><ele>430.99999999999994</ele><time>2026-05-04T18:30:05.974Z</time></trkpt><trkpt lat="45.6587243" lon="10.2329963"><ele>432.0</ele><time>2026-05-04T18:30:06.974Z</time></trkpt><trkpt lat="45.6586819" lon="10.233138"><ele>433.0</ele><time>2026-05-04T18:30:07.974Z</time></trkpt><trkpt lat="45.6586468" lon="10.2333314"><ele>434.0</ele><time>2026-05-04T18:30:08.974Z</time></trkpt><trkpt lat="45.6587033" lon="10.2335147"><ele>435.0</ele><time>2026-05-04T18:30:09.974Z</time></trkpt><trkpt lat="45.6587529" lon="10.2336675"><ele>436.0</ele><time>2026-05-04T18:30:10.955Z</time></trkpt><trkpt lat="45.658799" lon="10.2338451"><ele>437.0</ele><time>2026-05-04T18:30:11.974Z</time></trkpt><trkpt lat="45.6588414" lon="10.2340186"><ele>437.25</ele><time>2026-05-04T18:30:12.974Z</time></trkpt><trkpt lat="45.6588651" lon="10.2341745"><ele>437.5</ele><time>2026-05-04T18:30:13.974Z</time></trkpt><trkpt lat="45.6589273" lon="10.2343331"><ele>437.75</ele><time>2026-05-04T18:30:14.974Z</time></trkpt><trkpt lat="45.6589583" lon="10.2345013"><ele>438.0</ele><time>2026-05-04T18:30:15.974Z</time></trkpt><trkpt lat="45.6589955" lon="10.2346676"><ele>438.25</ele><time>2026-05-04T18:30:16.974Z</time></trkpt><trkpt lat="45.6590341" lon="10.2348346"><ele>438.5</ele><time>2026-05-04T18:30:17.974Z</time></trkpt><trkpt lat="45.6590741" lon="10.2349988"><ele>438.75</ele><time>2026-05-04T18:30:18.974Z</time></trkpt><trkpt lat="45.6591227" lon="10.235162"><ele>439.0</ele><time>2026-05-04T18:30:19.974Z</time></trkpt><trkpt lat="45.6591557" lon="10.2353269"><ele>439.0</ele><time>2026-05-04T18:30:20.962Z</time></trkpt><trkpt lat="45.65916" lon="10.2355475"><ele>439.0</ele><time>2026-05-04T18:30:21.964Z</time></trkpt><trkpt lat="45.6591658" lon="10.2357147"><ele>439.0</ele><time>2026-05-04T18:30:22.974Z</time></trkpt><trkpt lat="45.6592012" lon="10.2359074"><ele>439.0</ele><time>2026-05-04T18:30:23.974Z</time></trkpt><trkpt lat="45.6591353" lon="10.2361223"><ele>440.6666666666667</ele><time>2026-05-04T18:30:24.974Z</time></trkpt><trkpt lat="45.6590508" lon="10.2363274"><ele>442.33333333333337</ele><time>2026-05-04T18:30:25.974Z</time></trkpt><trkpt lat="45.6589397" lon="10.2364891"><ele>444.0</ele><time>2026-05-04T18:30:26.974Z</time></trkpt><trkpt lat="45.6588682" lon="10.2366721"><ele>443.0</ele><time>2026-05-04T18:30:27.974Z</time></trkpt><trkpt lat="45.6588245" lon="10.2368427"><ele>442.0</ele><time>2026-05-04T18:30:28.974Z</time></trkpt><trkpt lat="45.658752" lon="10.2369934"><ele>441.0</ele><time>2026-05-04T18:30:29.974Z</time></trkpt><trkpt lat="45.6586875" lon="10.2371395"><ele>440.0</ele><time>2026-05-04T18:30:30.974Z</time></trkpt><trkpt lat="45.6585756" lon="10.2371989"><ele>440.0</ele><time>2026-05-04T18:30:31.974Z</time></trkpt><trkpt lat="45.6584649" lon="10.2372824"><ele>440.0</ele><time>2026-05-04T18:30:32.974Z</time></trkpt><trkpt lat="45.6583475" lon="10.2373066"><ele>440.0</ele><time>2026-05-04T18:30:33.974Z</time></trkpt><trkpt lat="45.6582223" lon="10.2373434"><ele>440.0</ele><time>2026-05-04T18:30:34.975Z</time></trkpt><trkpt lat="45.6580832" lon="10.2373472"><ele>442.0</ele><time>2026-05-04T18:30:35.975Z</time></trkpt><trkpt lat="45.6579564" lon="10.2373717"><ele>444.0</ele><time>2026-05-04T18:30:36.974Z</time></trkpt><trkpt lat="45.6578277" lon="10.2373645"><ele>446.0</ele><time>2026-05-04T18:30:37.974Z</time></trkpt><trkpt lat="45.657665" lon="10.2372848"><ele>448.0</ele><time>2026-05-04T18:30:38.974Z</time></trkpt><trkpt lat="45.6575238" lon="10.2372687"><ele>447.0</ele><time>2026-05-04T18:30:39.974Z</time></trkpt><trkpt lat="45.6573699" lon="10.2373013"><ele>446.0</ele><time>2026-05-04T18:30:40.975Z</time></trkpt><trkpt lat="45.6571753" lon="10.2373785"><ele>445.0</ele><time>2026-05-04T18:30:41.974Z</time></trkpt><trkpt lat="45.6570273" lon="10.2373728"><ele>443.5</ele><time>2026-05-04T18:30:42.974Z</time></trkpt><trkpt lat="45.6568886" lon="10.2373741"><ele>442.0</ele><time>2026-05-04T18:30:43.974Z</time></trkpt><trkpt lat="45.6567625" lon="10.237371"><ele>440.5</ele><time>2026-05-04T18:30:44.934Z</time></trkpt><trkpt lat="45.6566363" lon="10.2373991"><ele>439.0</ele><time>2026-05-04T18:30:45.974Z</time></trkpt><trkpt lat="45.6565383" lon="10.2374294"><ele>439.0</ele><time>2026-05-04T18:30:46.974Z</time></trkpt><trkpt lat="45.6564302" lon="10.2374761"><ele>439.0</ele><time>2026-05-04T18:30:47.975Z</time></trkpt><trkpt lat="45.6563555" lon="10.2375761"><ele>439.0</ele><time>2026-05-04T18:30:48.974Z</time></trkpt><trkpt lat="45.6563194" lon="10.2376891"><ele>439.0</ele><time>2026-05-04T18:30:49.974Z</time></trkpt><trkpt lat="45.6563413" lon="10.2379527"><ele>439.00000000000006</ele><time>2026-05-04T18:30:50.975Z</time></trkpt><trkpt lat="45.656311" lon="10.2380789"><ele>439.0</ele><time>2026-05-04T18:30:51.974Z</time></trkpt><trkpt lat="45.6563065" lon="10.2381983"><ele>439.0</ele><time>2026-05-04T18:30:52.974Z</time></trkpt><trkpt lat="45.656358" lon="10.2382977"><ele>439.0</ele><time>2026-05-04T18:30:53.974Z</time></trkpt><trkpt lat="45.6563952" lon="10.238408"><ele>439.00000000000006</ele><time>2026-05-04T18:30:54.974Z</time></trkpt><trkpt lat="45.6564533" lon="10.2385216"><ele>439.0</ele><time>2026-05-04T18:30:55.974Z</time></trkpt><trkpt lat="45.6565674" lon="10.238527"><ele>439.79999999999995</ele><time>2026-05-04T18:30:56.974Z</time></trkpt><trkpt lat="45.6566605" lon="10.2385629"><ele>440.59999999999997</ele><time>2026-05-04T18:30:57.974Z</time></trkpt><trkpt lat="45.6567545" lon="10.2386193"><ele>441.4</ele><time>2026-05-04T18:30:58.975Z</time></trkpt><trkpt lat="45.6568402" lon="10.2386729"><ele>442.2</ele><time>2026-05-04T18:30:59.974Z</time></trkpt><trkpt lat="45.6569262" lon="10.2387383"><ele>443.0</ele><time>2026-05-04T18:31:00.975Z</time></trkpt><trkpt lat="45.6570116" lon="10.2387612"><ele>444.8333333333333</ele><time>2026-05-04T18:31:01.939Z</time></trkpt><trkpt lat="45.6571107" lon="10.238798"><ele>446.66666666666663</ele><time>2026-05-04T18:31:02.974Z</time></trkpt><trkpt lat="45.6572017" lon="10.2388428"><ele>448.5</ele><time>2026-05-04T18:31:03.937Z</time></trkpt><trkpt lat="45.657243" lon="10.2389492"><ele>450.33333333333337</ele><time>2026-05-04T18:31:04.932Z</time></trkpt><trkpt lat="45.6572961" lon="10.2390382"><ele>452.1666666666667</ele><time>2026-05-04T18:31:05.938Z</time></trkpt><trkpt lat="45.6573463" lon="10.2391269"><ele>454.0</ele><time>2026-05-04T18:31:06.926Z</time></trkpt><trkpt lat="45.6572752" lon="10.2392709"><ele>454.4</ele><time>2026-05-04T18:31:07.974Z</time></trkpt><trkpt lat="45.6572409" lon="10.2393948"><ele>454.79999999999995</ele><time>2026-05-04T18:31:08.974Z</time></trkpt><trkpt lat="45.6572387" lon="10.2395938"><ele>455.20000000000005</ele><time>2026-05-04T18:31:09.974Z</time></trkpt><trkpt lat="45.6572284" lon="10.2397308"><ele>455.6</ele><time>2026-05-04T18:31:10.974Z</time></trkpt><trkpt lat="45.657229" lon="10.2398851"><ele>456.0</ele><time>2026-05-04T18:31:11.974Z</time></trkpt><trkpt lat="45.6572177" lon="10.2400334"><ele>456.75</ele><time>2026-05-04T18:31:12.928Z</time></trkpt><trkpt lat="45.6571947" lon="10.2401891"><ele>457.5</ele><time>2026-05-04T18:31:13.974Z</time></trkpt><trkpt lat="45.6571835" lon="10.240339"><ele>458.25</ele><time>2026-05-04T18:31:14.975Z</time></trkpt><trkpt lat="45.6572259" lon="10.2406381"><ele>459.0</ele><time>2026-05-04T18:31:15.974Z</time></trkpt><trkpt lat="45.6572176" lon="10.2407924"><ele>461.0</ele><time>2026-05-04T18:31:16.974Z</time></trkpt><trkpt lat="45.6571793" lon="10.2410255"><ele>463.0</ele><time>2026-05-04T18:31:17.974Z</time></trkpt><trkpt lat="45.6571716" lon="10.2411443"><ele>465.0</ele><time>2026-05-04T18:31:18.974Z</time></trkpt><trkpt lat="45.6571635" lon="10.2412967"><ele>467.0</ele><time>2026-05-04T18:31:19.949Z</time></trkpt><trkpt lat="45.6572222" lon="10.2414554"><ele>467.6</ele><time>2026-05-04T18:31:20.974Z</time></trkpt><trkpt lat="45.6572277" lon="10.241602"><ele>468.20000000000005</ele><time>2026-05-04T18:31:21.974Z</time></trkpt><trkpt lat="45.6572353" lon="10.2417569"><ele>468.8</ele><time>2026-05-04T18:31:22.974Z</time></trkpt><trkpt lat="45.6572625" lon="10.2419309"><ele>469.4</ele><time>2026-05-04T18:31:23.974Z</time></trkpt><trkpt lat="45.657297" lon="10.2420679"><ele>470.0</ele><time>2026-05-04T18:31:24.974Z</time></trkpt><trkpt lat="45.6573406" lon="10.2422329"><ele>470.0</ele><time>2026-05-04T18:31:25.974Z</time></trkpt><trkpt lat="45.6573649" lon="10.2423893"><ele>470.0</ele><time>2026-05-04T18:31:26.974Z</time></trkpt><trkpt lat="45.6573959" lon="10.2425301"><ele>470.0</ele><time>2026-05-04T18:31:27.974Z</time></trkpt><trkpt lat="45.6574411" lon="10.2427193"><ele>470.0</ele><time>2026-05-04T18:31:28.974Z</time></trkpt><trkpt lat="45.6574742" lon="10.2429164"><ele>470.0</ele><time>2026-05-04T18:31:29.974Z</time></trkpt><trkpt lat="45.6575116" lon="10.2431055"><ele>470.0</ele><time>2026-05-04T18:31:30.974Z</time></trkpt><trkpt lat="45.657541" lon="10.243281"><ele>470.0</ele><time>2026-05-04T18:31:31.974Z</time></trkpt><trkpt lat="45.6575896" lon="10.2434791"><ele>470.0</ele><time>2026-05-04T18:31:32.975Z</time></trkpt><trkpt lat="45.6576436" lon="10.2436834"><ele>469.5</ele><time>2026-05-04T18:31:33.974Z</time></trkpt><trkpt lat="45.6576758" lon="10.2438652"><ele>469.0</ele><time>2026-05-04T18:31:34.974Z</time></trkpt><trkpt lat="45.657718" lon="10.2440287"><ele>468.5</ele><time>2026-05-04T18:31:35.974Z</time></trkpt><trkpt lat="45.6577635" lon="10.2441373"><ele>468.0</ele><time>2026-05-04T18:31:36.974Z</time></trkpt><trkpt lat="45.6578734" lon="10.2442433"><ele>470.25</ele><time>2026-05-04T18:31:37.974Z</time></trkpt><trkpt lat="45.6579724" lon="10.2443539"><ele>472.5</ele><time>2026-05-04T18:31:38.974Z</time></trkpt><trkpt lat="45.6580977" lon="10.2443332"><ele>474.75</ele><time>2026-05-04T18:31:39.974Z</time></trkpt><trkpt lat="45.658208" lon="10.2443313"><ele>477.0</ele><time>2026-05-04T18:31:40.974Z</time></trkpt><trkpt lat="45.6583191" lon="10.244345"><ele>477.0</ele><time>2026-05-04T18:31:41.974Z</time></trkpt><trkpt lat="45.6584382" lon="10.2443623"><ele>477.00000000000006</ele><time>2026-05-04T18:31:42.974Z</time></trkpt><trkpt lat="45.6585453" lon="10.244409"><ele>477.00000000000006</ele><time>2026-05-04T18:31:43.975Z</time></trkpt><trkpt lat="45.6586397" lon="10.2444944"><ele>477.0</ele><time>2026-05-04T18:31:44.974Z</time></trkpt><trkpt lat="45.6586592" lon="10.2446067"><ele>477.0</ele><time>2026-05-04T18:31:45.974Z</time></trkpt><trkpt lat="45.658642" lon="10.2447675"><ele>477.0</ele><time>2026-05-04T18:31:46.974Z</time></trkpt><trkpt lat="45.6585399" lon="10.2448922"><ele>477.00000000000006</ele><time>2026-05-04T18:31:47.974Z</time></trkpt><trkpt lat="45.6584881" lon="10.2450094"><ele>477.00000000000006</ele><time>2026-05-04T18:31:48.974Z</time></trkpt><trkpt lat="45.6584325" lon="10.2451252"><ele>477.0</ele><time>2026-05-04T18:31:49.93Z</time></trkpt><trkpt lat="45.6583426" lon="10.2452385"><ele>477.0</ele><time>2026-05-04T18:31:50.94Z</time></trkpt><trkpt lat="45.6582563" lon="10.2453577"><ele>477.0</ele><time>2026-05-04T18:31:51.974Z</time></trkpt><trkpt lat="45.6581837" lon="10.2454744"><ele>477.0</ele><time>2026-05-04T18:31:52.974Z</time></trkpt><trkpt lat="45.6581565" lon="10.2456593"><ele>477.0</ele><time>2026-05-04T18:31:53.974Z</time></trkpt><trkpt lat="45.6581381" lon="10.2458156"><ele>477.0</ele><time>2026-05-04T18:31:54.974Z</time></trkpt><trkpt lat="45.6581205" lon="10.2459825"><ele>477.5</ele><time>2026-05-04T18:31:55.974Z</time></trkpt><trkpt lat="45.6581283" lon="10.246144"><ele>478.0</ele><time>2026-05-04T18:31:56.974Z</time></trkpt><trkpt lat="45.65812" lon="10.2463041"><ele>478.5</ele><time>2026-05-04T18:31:57.974Z</time></trkpt><trkpt lat="45.6581432" lon="10.2465515"><ele>479.0</ele><time>2026-05-04T18:31:58.974Z</time></trkpt><trkpt lat="45.6581544" lon="10.2467662"><ele>477.66666666666663</ele><time>2026-05-04T18:31:59.974Z</time></trkpt><trkpt lat="45.6583505" lon="10.2468037"><ele>476.33333333333337</ele><time>2026-05-04T18:32:00.975Z</time></trkpt><trkpt lat="45.6585125" lon="10.2469294"><ele>475.0</ele><time>2026-05-04T18:32:01.974Z</time></trkpt><trkpt lat="45.6585545" lon="10.2471037"><ele>475.0</ele><time>2026-05-04T18:32:02.974Z</time></trkpt><trkpt lat="45.6585976" lon="10.2472525"><ele>475.0</ele><time>2026-05-04T18:32:03.974Z</time></trkpt><trkpt lat="45.6586165" lon="10.2474365"><ele>475.0</ele><time>2026-05-04T18:32:04.974Z</time></trkpt><trkpt lat="45.6585746" lon="10.2475727"><ele>475.0</ele><time>2026-05-04T18:32:05.974Z</time></trkpt><trkpt lat="45.6584957" lon="10.2476916"><ele>474.4</ele><time>2026-05-04T18:32:06.974Z</time></trkpt><trkpt lat="45.6584464" lon="10.2478117"><ele>473.8</ele><time>2026-05-04T18:32:07.974Z</time></trkpt><trkpt lat="45.6583924" lon="10.2479429"><ele>473.20000000000005</ele><time>2026-05-04T18:32:08.974Z</time></trkpt><trkpt lat="45.658337" lon="10.2480732"><ele>472.6</ele><time>2026-05-04T18:32:09.974Z</time></trkpt><trkpt lat="45.6583047" lon="10.2482278"><ele>472.0</ele><time>2026-05-04T18:32:10.935Z</time></trkpt><trkpt lat="45.6582553" lon="10.2483888"><ele>474.40000000000003</ele><time>2026-05-04T18:32:11.974Z</time></trkpt><trkpt lat="45.6582785" lon="10.2485344"><ele>476.80000000000007</ele><time>2026-05-04T18:32:12.974Z</time></trkpt><trkpt lat="45.6582657" lon="10.2486913"><ele>479.2</ele><time>2026-05-04T18:32:13.974Z</time></trkpt><trkpt lat="45.658266" lon="10.2488416"><ele>481.6</ele><time>2026-05-04T18:32:14.941Z</time></trkpt><trkpt lat="45.6582601" lon="10.2490053"><ele>484.0</ele><time>2026-05-04T18:32:15.974Z</time></trkpt><trkpt lat="45.6582643" lon="10.2491739"><ele>485.2</ele><time>2026-05-04T18:32:16.975Z</time></trkpt><trkpt lat="45.6582107" lon="10.2493321"><ele>486.4</ele><time>2026-05-04T18:32:17.974Z</time></trkpt><trkpt lat="45.6581968" lon="10.2494787"><ele>487.6</ele><time>2026-05-04T18:32:18.974Z</time></trkpt><trkpt lat="45.6581651" lon="10.2496316"><ele>488.8</ele><time>2026-05-04T18:32:19.974Z</time></trkpt><trkpt lat="45.6581474" lon="10.249766"><ele>490.0</ele><time>2026-05-04T18:32:20.974Z</time></trkpt><trkpt lat="45.6581135" lon="10.2499037"><ele>491.6666666666667</ele><time>2026-05-04T18:32:21.974Z</time></trkpt><trkpt lat="45.6580596" lon="10.2500391"><ele>493.33333333333337</ele><time>2026-05-04T18:32:22.938Z</time></trkpt><trkpt lat="45.6580333" lon="10.2501398"><ele>495.0</ele><time>2026-05-04T18:32:23.974Z</time></trkpt><trkpt lat="45.658018" lon="10.2502496"><ele>496.66666666666663</ele><time>2026-05-04T18:32:24.974Z</time></trkpt><trkpt lat="45.6579909" lon="10.2503776"><ele>498.3333333333333</ele><time>2026-05-04T18:32:25.974Z</time></trkpt><trkpt lat="45.6579532" lon="10.2504972"><ele>500.0</ele><time>2026-05-04T18:32:26.974Z</time></trkpt><trkpt lat="45.6578984" lon="10.2505832"><ele>501.4</ele><time>2026-05-04T18:32:27.974Z</time></trkpt><trkpt lat="45.6578115" lon="10.2506993"><ele>502.8</ele><time>2026-05-04T18:32:28.931Z</time></trkpt><trkpt lat="45.6577195" lon="10.2507611"><ele>504.20000000000005</ele><time>2026-05-04T18:32:29.974Z</time></trkpt><trkpt lat="45.6575959" lon="10.2508005"><ele>505.6</ele><time>2026-05-04T18:32:30.974Z</time></trkpt><trkpt lat="45.6575411" lon="10.2508696"><ele>507.0</ele><time>2026-05-04T18:32:31.974Z</time></trkpt><trkpt lat="45.6574915" lon="10.250992"><ele>507.0</ele><time>2026-05-04T18:32:33.93Z</time></trkpt><trkpt lat="45.6577043" lon="10.2510554"><ele>507.0</ele><time>2026-05-04T18:32:34.974Z</time></trkpt><trkpt lat="45.6577558" lon="10.2511885"><ele>507.0</ele><time>2026-05-04T18:32:36.974Z</time></trkpt><trkpt lat="45.657787" lon="10.2512846"><ele>507.0</ele><time>2026-05-04T18:32:37.974Z</time></trkpt><trkpt lat="45.6578181" lon="10.2513915"><ele>508.8</ele><time>2026-05-04T18:32:38.974Z</time></trkpt><trkpt lat="45.6578485" lon="10.2514975"><ele>510.6</ele><time>2026-05-04T18:32:39.974Z</time></trkpt><trkpt lat="45.657859" lon="10.2515894"><ele>512.4000000000001</ele><time>2026-05-04T18:32:40.936Z</time></trkpt><trkpt lat="45.6578038" lon="10.2517436"><ele>514.2</ele><time>2026-05-04T18:32:42.974Z</time></trkpt><trkpt lat="45.6577391" lon="10.2518143"><ele>516.0</ele><time>2026-05-04T18:32:43.975Z</time></trkpt><trkpt lat="45.6576279" lon="10.2519089"><ele>516.0</ele><time>2026-05-04T18:32:45.974Z</time></trkpt><trkpt lat="45.6574981" lon="10.2520412"><ele>516.0</ele><time>2026-05-04T18:32:47.948Z</time></trkpt><trkpt lat="45.6574471" lon="10.2521662"><ele>516.0</ele><time>2026-05-04T18:32:48.975Z</time></trkpt><trkpt lat="45.6573819" lon="10.2522633"><ele>516.0</ele><time>2026-05-04T18:32:49.974Z</time></trkpt><trkpt lat="45.6573256" lon="10.2523763"><ele>518.0</ele><time>2026-05-04T18:32:50.932Z</time></trkpt><trkpt lat="45.6572581" lon="10.2524822"><ele>520.0</ele><time>2026-05-04T18:32:51.974Z</time></trkpt><trkpt lat="45.6572071" lon="10.2525862"><ele>522.0</ele><time>2026-05-04T18:32:52.974Z</time></trkpt><trkpt lat="45.6571554" lon="10.2526776"><ele>524.0</ele><time>2026-05-04T18:32:53.974Z</time></trkpt><trkpt lat="45.6570963" lon="10.2527699"><ele>526.0</ele><time>2026-05-04T18:32:54.974Z</time></trkpt><trkpt lat="45.6570353" lon="10.2528403"><ele>528.0</ele><time>2026-05-04T18:32:55.974Z</time></trkpt><trkpt lat="45.6570136" lon="10.2529502"><ele>528.0</ele><time>2026-05-04T18:32:56.974Z</time></trkpt><trkpt lat="45.6569896" lon="10.2530743"><ele>528.0</ele><time>2026-05-04T18:32:57.974Z</time></trkpt><trkpt lat="45.6569987" lon="10.2531961"><ele>528.0</ele><time>2026-05-04T18:32:58.974Z</time></trkpt><trkpt lat="45.6570054" lon="10.2533225"><ele>528.0</ele><time>2026-05-04T18:32:59.974Z</time></trkpt><trkpt lat="45.65701" lon="10.2534466"><ele>528.0</ele><time>2026-05-04T18:33:00.974Z</time></trkpt><trkpt lat="45.6570019" lon="10.253551"><ele>528.0</ele><time>2026-05-04T18:33:01.974Z</time></trkpt><trkpt lat="45.6570024" lon="10.2536483"><ele>537.0</ele><time>2026-05-04T18:33:02.974Z</time></trkpt><trkpt lat="45.6570465" lon="10.2537615"><ele>537.0</ele><time>2026-05-04T18:33:04.974Z</time></trkpt><trkpt lat="45.6570927" lon="10.253855"><ele>537.0</ele><time>2026-05-04T18:33:06.974Z</time></trkpt><trkpt lat="45.65714" lon="10.253788"><ele>537.0</ele><time>2026-05-04T18:33:08.974Z</time></trkpt><trkpt lat="45.657199" lon="10.2537111"><ele>537.0</ele><time>2026-05-04T18:33:11.974Z</time></trkpt><trkpt lat="45.6572748" lon="10.2536903"><ele>537.0</ele><time>2026-05-04T18:33:14.924Z</time></trkpt></trkseg></trk></gpx>